<?xml version="1.0" encoding="UTF-8" standalone="no" ?>
<gpx xmlns="http://www.topografix.com/GPX/1/1" xmlns:xsi="http://www.w3.org/2001/XMLSchema-instance" xsi:schemaLocation="http://www.topografix.com/GPX/1/1 http://www.topografix.com/GPX/1/1/gpx.xsd" version="1.1" creator="VisuGPX - https://www.visugpx.com">
  <metadata>
    <name>Veilhes</name>
  </metadata>
  <trk>
    <name><![CDATA[Point café Veilhes  230225-20729455]]></name>
    <trkseg>
      <trkpt lat="43.69631" lon="1.8158">
        <ele>140</ele>
        <time>2025-02-18T13:22:59Z</time>
      </trkpt>
      <trkpt lat="43.69635" lon="1.81587">
        <ele>140</ele>
        <time>2025-02-18T13:23:00Z</time>
      </trkpt>
      <trkpt lat="43.69632" lon="1.8159">
        <ele>140</ele>
        <time>2025-02-18T13:23:01Z</time>
      </trkpt>
      <trkpt lat="43.69631" lon="1.81595">
        <ele>140</ele>
        <time>2025-02-18T13:23:01Z</time>
      </trkpt>
      <trkpt lat="43.69614" lon="1.81609">
        <ele>141</ele>
        <time>2025-02-18T13:23:05Z</time>
      </trkpt>
      <trkpt lat="43.69602" lon="1.81615">
        <ele>141</ele>
        <time>2025-02-18T13:23:07Z</time>
      </trkpt>
      <trkpt lat="43.69541" lon="1.81648">
        <ele>142</ele>
        <time>2025-02-18T13:23:19Z</time>
      </trkpt>
      <trkpt lat="43.69536" lon="1.8165">
        <ele>142</ele>
        <time>2025-02-18T13:23:20Z</time>
      </trkpt>
      <trkpt lat="43.69504" lon="1.81668">
        <ele>143</ele>
        <time>2025-02-18T13:23:26Z</time>
      </trkpt>
      <trkpt lat="43.69462" lon="1.8169">
        <ele>144</ele>
        <time>2025-02-18T13:23:34Z</time>
      </trkpt>
      <trkpt lat="43.69456" lon="1.81693">
        <ele>144</ele>
        <time>2025-02-18T13:23:35Z</time>
      </trkpt>
      <trkpt lat="43.6941" lon="1.8172">
        <ele>145</ele>
        <time>2025-02-18T13:23:44Z</time>
      </trkpt>
      <trkpt lat="43.69409" lon="1.81723">
        <ele>145</ele>
        <time>2025-02-18T13:23:44Z</time>
      </trkpt>
      <trkpt lat="43.69407" lon="1.81719">
        <ele>145</ele>
        <time>2025-02-18T13:23:45Z</time>
      </trkpt>
      <trkpt lat="43.69403" lon="1.81718">
        <ele>145</ele>
        <time>2025-02-18T13:23:46Z</time>
      </trkpt>
      <trkpt lat="43.694" lon="1.8172">
        <ele>145</ele>
        <time>2025-02-18T13:23:46Z</time>
      </trkpt>
      <trkpt lat="43.69399" lon="1.81722">
        <ele>145</ele>
        <time>2025-02-18T13:23:47Z</time>
      </trkpt>
      <trkpt lat="43.69398" lon="1.81725">
        <ele>145</ele>
        <time>2025-02-18T13:23:47Z</time>
      </trkpt>
      <trkpt lat="43.69387" lon="1.81724">
        <ele>145</ele>
        <time>2025-02-18T13:23:49Z</time>
      </trkpt>
      <trkpt lat="43.69354" lon="1.81736">
        <ele>145</ele>
        <time>2025-02-18T13:23:55Z</time>
      </trkpt>
      <trkpt lat="43.69329" lon="1.81742">
        <ele>145</ele>
        <time>2025-02-18T13:24:00Z</time>
      </trkpt>
      <trkpt lat="43.69304" lon="1.81746">
        <ele>145</ele>
        <time>2025-02-18T13:24:04Z</time>
      </trkpt>
      <trkpt lat="43.69265" lon="1.81749">
        <ele>144</ele>
        <time>2025-02-18T13:24:11Z</time>
      </trkpt>
      <trkpt lat="43.69242" lon="1.81749">
        <ele>144</ele>
        <time>2025-02-18T13:24:15Z</time>
      </trkpt>
      <trkpt lat="43.69218" lon="1.81748">
        <ele>144</ele>
        <time>2025-02-18T13:24:19Z</time>
      </trkpt>
      <trkpt lat="43.69197" lon="1.81745">
        <ele>145</ele>
        <time>2025-02-18T13:24:23Z</time>
      </trkpt>
      <trkpt lat="43.69173" lon="1.81741">
        <ele>145</ele>
        <time>2025-02-18T13:24:28Z</time>
      </trkpt>
      <trkpt lat="43.6916" lon="1.81738">
        <ele>145</ele>
        <time>2025-02-18T13:24:30Z</time>
      </trkpt>
      <trkpt lat="43.69131" lon="1.81732">
        <ele>145</ele>
        <time>2025-02-18T13:24:35Z</time>
      </trkpt>
      <trkpt lat="43.69123" lon="1.8173">
        <ele>145</ele>
        <time>2025-02-18T13:24:37Z</time>
      </trkpt>
      <trkpt lat="43.69038" lon="1.81711">
        <ele>144</ele>
        <time>2025-02-18T13:24:52Z</time>
      </trkpt>
      <trkpt lat="43.69001" lon="1.81702">
        <ele>143</ele>
        <time>2025-02-18T13:24:59Z</time>
      </trkpt>
      <trkpt lat="43.68981" lon="1.81694">
        <ele>143</ele>
        <time>2025-02-18T13:25:02Z</time>
      </trkpt>
      <trkpt lat="43.68973" lon="1.81687">
        <ele>144</ele>
        <time>2025-02-18T13:25:04Z</time>
      </trkpt>
      <trkpt lat="43.6897" lon="1.81683">
        <ele>144</ele>
        <time>2025-02-18T13:25:05Z</time>
      </trkpt>
      <trkpt lat="43.68966" lon="1.81681">
        <ele>144</ele>
        <time>2025-02-18T13:25:05Z</time>
      </trkpt>
      <trkpt lat="43.68961" lon="1.81681">
        <ele>144</ele>
        <time>2025-02-18T13:25:06Z</time>
      </trkpt>
      <trkpt lat="43.68958" lon="1.81684">
        <ele>144</ele>
        <time>2025-02-18T13:25:07Z</time>
      </trkpt>
      <trkpt lat="43.68943" lon="1.81686">
        <ele>144</ele>
        <time>2025-02-18T13:25:10Z</time>
      </trkpt>
      <trkpt lat="43.68928" lon="1.81685">
        <ele>145</ele>
        <time>2025-02-18T13:25:12Z</time>
      </trkpt>
      <trkpt lat="43.68924" lon="1.81685">
        <ele>145</ele>
        <time>2025-02-18T13:25:13Z</time>
      </trkpt>
      <trkpt lat="43.68857" lon="1.8167">
        <ele>146</ele>
        <time>2025-02-18T13:25:25Z</time>
      </trkpt>
      <trkpt lat="43.68809" lon="1.81661">
        <ele>147</ele>
        <time>2025-02-18T13:25:34Z</time>
      </trkpt>
      <trkpt lat="43.68762" lon="1.81651">
        <ele>148</ele>
        <time>2025-02-18T13:25:42Z</time>
      </trkpt>
      <trkpt lat="43.68692" lon="1.81634">
        <ele>148</ele>
        <time>2025-02-18T13:25:55Z</time>
      </trkpt>
      <trkpt lat="43.68687" lon="1.81633">
        <ele>148</ele>
        <time>2025-02-18T13:25:56Z</time>
      </trkpt>
      <trkpt lat="43.68663" lon="1.81628">
        <ele>148</ele>
        <time>2025-02-18T13:26:00Z</time>
      </trkpt>
      <trkpt lat="43.68576" lon="1.81609">
        <ele>150</ele>
        <time>2025-02-18T13:26:16Z</time>
      </trkpt>
      <trkpt lat="43.68524" lon="1.81597">
        <ele>149</ele>
        <time>2025-02-18T13:26:25Z</time>
      </trkpt>
      <trkpt lat="43.68368" lon="1.81564">
        <ele>151</ele>
        <time>2025-02-18T13:26:53Z</time>
      </trkpt>
      <trkpt lat="43.68353" lon="1.8156">
        <ele>151</ele>
        <time>2025-02-18T13:26:56Z</time>
      </trkpt>
      <trkpt lat="43.68335" lon="1.81557">
        <ele>152</ele>
        <time>2025-02-18T13:26:59Z</time>
      </trkpt>
      <trkpt lat="43.68305" lon="1.81549">
        <ele>152</ele>
        <time>2025-02-18T13:27:05Z</time>
      </trkpt>
      <trkpt lat="43.68262" lon="1.81538">
        <ele>153</ele>
        <time>2025-02-18T13:27:12Z</time>
      </trkpt>
      <trkpt lat="43.68182" lon="1.81521">
        <ele>152</ele>
        <time>2025-02-18T13:27:27Z</time>
      </trkpt>
      <trkpt lat="43.68171" lon="1.81519">
        <ele>152</ele>
        <time>2025-02-18T13:27:29Z</time>
      </trkpt>
      <trkpt lat="43.68049" lon="1.81492">
        <ele>153</ele>
        <time>2025-02-18T13:27:51Z</time>
      </trkpt>
      <trkpt lat="43.6796" lon="1.81472">
        <ele>155</ele>
        <time>2025-02-18T13:28:07Z</time>
      </trkpt>
      <trkpt lat="43.67668" lon="1.81407">
        <ele>167</ele>
        <time>2025-02-18T13:28:59Z</time>
      </trkpt>
      <trkpt lat="43.67643" lon="1.814">
        <ele>166</ele>
        <time>2025-02-18T13:29:04Z</time>
      </trkpt>
      <trkpt lat="43.67628" lon="1.81394">
        <ele>166</ele>
        <time>2025-02-18T13:29:07Z</time>
      </trkpt>
      <trkpt lat="43.67621" lon="1.81387">
        <ele>166</ele>
        <time>2025-02-18T13:29:08Z</time>
      </trkpt>
      <trkpt lat="43.67614" lon="1.8138">
        <ele>166</ele>
        <time>2025-02-18T13:29:10Z</time>
      </trkpt>
      <trkpt lat="43.67608" lon="1.81371">
        <ele>166</ele>
        <time>2025-02-18T13:29:11Z</time>
      </trkpt>
      <trkpt lat="43.67601" lon="1.81358">
        <ele>166</ele>
        <time>2025-02-18T13:29:13Z</time>
      </trkpt>
      <trkpt lat="43.6759" lon="1.81325">
        <ele>166</ele>
        <time>2025-02-18T13:29:18Z</time>
      </trkpt>
      <trkpt lat="43.67575" lon="1.81268">
        <ele>168</ele>
        <time>2025-02-18T13:29:26Z</time>
      </trkpt>
      <trkpt lat="43.67567" lon="1.81247">
        <ele>168</ele>
        <time>2025-02-18T13:29:29Z</time>
      </trkpt>
      <trkpt lat="43.67561" lon="1.8123">
        <ele>168</ele>
        <time>2025-02-18T13:29:31Z</time>
      </trkpt>
      <trkpt lat="43.67554" lon="1.81218">
        <ele>168</ele>
        <time>2025-02-18T13:29:33Z</time>
      </trkpt>
      <trkpt lat="43.67532" lon="1.81182">
        <ele>168</ele>
        <time>2025-02-18T13:29:39Z</time>
      </trkpt>
      <trkpt lat="43.67526" lon="1.8117">
        <ele>168</ele>
        <time>2025-02-18T13:29:41Z</time>
      </trkpt>
      <trkpt lat="43.67523" lon="1.81159">
        <ele>168</ele>
        <time>2025-02-18T13:29:43Z</time>
      </trkpt>
      <trkpt lat="43.6752" lon="1.81146">
        <ele>168</ele>
        <time>2025-02-18T13:29:45Z</time>
      </trkpt>
      <trkpt lat="43.67517" lon="1.81132">
        <ele>169</ele>
        <time>2025-02-18T13:29:46Z</time>
      </trkpt>
      <trkpt lat="43.67515" lon="1.81109">
        <ele>170</ele>
        <time>2025-02-18T13:29:49Z</time>
      </trkpt>
      <trkpt lat="43.67511" lon="1.81086">
        <ele>171</ele>
        <time>2025-02-18T13:29:52Z</time>
      </trkpt>
      <trkpt lat="43.67504" lon="1.81061">
        <ele>173</ele>
        <time>2025-02-18T13:29:56Z</time>
      </trkpt>
      <trkpt lat="43.675" lon="1.81049">
        <ele>174</ele>
        <time>2025-02-18T13:29:58Z</time>
      </trkpt>
      <trkpt lat="43.67494" lon="1.81039">
        <ele>175</ele>
        <time>2025-02-18T13:29:59Z</time>
      </trkpt>
      <trkpt lat="43.67486" lon="1.81028">
        <ele>175</ele>
        <time>2025-02-18T13:30:01Z</time>
      </trkpt>
      <trkpt lat="43.67473" lon="1.81012">
        <ele>175</ele>
        <time>2025-02-18T13:30:04Z</time>
      </trkpt>
      <trkpt lat="43.67448" lon="1.80981">
        <ele>175</ele>
        <time>2025-02-18T13:30:10Z</time>
      </trkpt>
      <trkpt lat="43.67361" lon="1.80866">
        <ele>177</ele>
        <time>2025-02-18T13:30:32Z</time>
      </trkpt>
      <trkpt lat="43.67354" lon="1.80858">
        <ele>178</ele>
        <time>2025-02-18T13:30:33Z</time>
      </trkpt>
      <trkpt lat="43.67346" lon="1.80853">
        <ele>178</ele>
        <time>2025-02-18T13:30:35Z</time>
      </trkpt>
      <trkpt lat="43.67339" lon="1.80851">
        <ele>177</ele>
        <time>2025-02-18T13:30:36Z</time>
      </trkpt>
      <trkpt lat="43.67331" lon="1.8085">
        <ele>177</ele>
        <time>2025-02-18T13:30:38Z</time>
      </trkpt>
      <trkpt lat="43.67321" lon="1.80851">
        <ele>177</ele>
        <time>2025-02-18T13:30:39Z</time>
      </trkpt>
      <trkpt lat="43.67299" lon="1.80857">
        <ele>177</ele>
        <time>2025-02-18T13:30:43Z</time>
      </trkpt>
      <trkpt lat="43.67281" lon="1.80859">
        <ele>176</ele>
        <time>2025-02-18T13:30:47Z</time>
      </trkpt>
      <trkpt lat="43.6726" lon="1.80853">
        <ele>177</ele>
        <time>2025-02-18T13:30:50Z</time>
      </trkpt>
      <trkpt lat="43.67249" lon="1.80848">
        <ele>178</ele>
        <time>2025-02-18T13:30:53Z</time>
      </trkpt>
      <trkpt lat="43.67232" lon="1.80834">
        <ele>179</ele>
        <time>2025-02-18T13:30:56Z</time>
      </trkpt>
      <trkpt lat="43.67212" lon="1.80809">
        <ele>182</ele>
        <time>2025-02-18T13:31:01Z</time>
      </trkpt>
      <trkpt lat="43.67204" lon="1.80802">
        <ele>183</ele>
        <time>2025-02-18T13:31:03Z</time>
      </trkpt>
      <trkpt lat="43.67197" lon="1.80797">
        <ele>183</ele>
        <time>2025-02-18T13:31:04Z</time>
      </trkpt>
      <trkpt lat="43.67188" lon="1.80793">
        <ele>183</ele>
        <time>2025-02-18T13:31:06Z</time>
      </trkpt>
      <trkpt lat="43.67179" lon="1.80792">
        <ele>183</ele>
        <time>2025-02-18T13:31:07Z</time>
      </trkpt>
      <trkpt lat="43.67171" lon="1.80793">
        <ele>183</ele>
        <time>2025-02-18T13:31:09Z</time>
      </trkpt>
      <trkpt lat="43.6715" lon="1.80799">
        <ele>182</ele>
        <time>2025-02-18T13:31:12Z</time>
      </trkpt>
      <trkpt lat="43.67139" lon="1.80801">
        <ele>181</ele>
        <time>2025-02-18T13:31:14Z</time>
      </trkpt>
      <trkpt lat="43.67129" lon="1.808">
        <ele>181</ele>
        <time>2025-02-18T13:31:16Z</time>
      </trkpt>
      <trkpt lat="43.67108" lon="1.80793">
        <ele>181</ele>
        <time>2025-02-18T13:31:20Z</time>
      </trkpt>
      <trkpt lat="43.66962" lon="1.80712">
        <ele>190</ele>
        <time>2025-02-18T13:31:48Z</time>
      </trkpt>
      <trkpt lat="43.66959" lon="1.80709">
        <ele>190</ele>
        <time>2025-02-18T13:31:49Z</time>
      </trkpt>
      <trkpt lat="43.66955" lon="1.80705">
        <ele>191</ele>
        <time>2025-02-18T13:31:50Z</time>
      </trkpt>
      <trkpt lat="43.66942" lon="1.80687">
        <ele>193</ele>
        <time>2025-02-18T13:31:53Z</time>
      </trkpt>
      <trkpt lat="43.66928" lon="1.8066">
        <ele>196</ele>
        <time>2025-02-18T13:31:57Z</time>
      </trkpt>
      <trkpt lat="43.66922" lon="1.80653">
        <ele>196</ele>
        <time>2025-02-18T13:31:59Z</time>
      </trkpt>
      <trkpt lat="43.66915" lon="1.80649">
        <ele>196</ele>
        <time>2025-02-18T13:32:00Z</time>
      </trkpt>
      <trkpt lat="43.66906" lon="1.80645">
        <ele>196</ele>
        <time>2025-02-18T13:32:02Z</time>
      </trkpt>
      <trkpt lat="43.66872" lon="1.80638">
        <ele>194</ele>
        <time>2025-02-18T13:32:08Z</time>
      </trkpt>
      <trkpt lat="43.66852" lon="1.80633">
        <ele>193</ele>
        <time>2025-02-18T13:32:11Z</time>
      </trkpt>
      <trkpt lat="43.66811" lon="1.80625">
        <ele>194</ele>
        <time>2025-02-18T13:32:19Z</time>
      </trkpt>
      <trkpt lat="43.66797" lon="1.80623">
        <ele>195</ele>
        <time>2025-02-18T13:32:21Z</time>
      </trkpt>
      <trkpt lat="43.66776" lon="1.80625">
        <ele>195</ele>
        <time>2025-02-18T13:32:25Z</time>
      </trkpt>
      <trkpt lat="43.6674" lon="1.8063">
        <ele>197</ele>
        <time>2025-02-18T13:32:31Z</time>
      </trkpt>
      <trkpt lat="43.66725" lon="1.80633">
        <ele>198</ele>
        <time>2025-02-18T13:32:34Z</time>
      </trkpt>
      <trkpt lat="43.66712" lon="1.80638">
        <ele>199</ele>
        <time>2025-02-18T13:32:36Z</time>
      </trkpt>
      <trkpt lat="43.66679" lon="1.80652">
        <ele>201</ele>
        <time>2025-02-18T13:32:43Z</time>
      </trkpt>
      <trkpt lat="43.6665" lon="1.80662">
        <ele>201</ele>
        <time>2025-02-18T13:32:48Z</time>
      </trkpt>
      <trkpt lat="43.6664" lon="1.80663">
        <ele>201</ele>
        <time>2025-02-18T13:32:50Z</time>
      </trkpt>
      <trkpt lat="43.66597" lon="1.8066">
        <ele>200</ele>
        <time>2025-02-18T13:32:57Z</time>
      </trkpt>
      <trkpt lat="43.66584" lon="1.80659">
        <ele>200</ele>
        <time>2025-02-18T13:33:00Z</time>
      </trkpt>
      <trkpt lat="43.6657" lon="1.8066">
        <ele>200</ele>
        <time>2025-02-18T13:33:02Z</time>
      </trkpt>
      <trkpt lat="43.6645" lon="1.80676">
        <ele>203</ele>
        <time>2025-02-18T13:33:24Z</time>
      </trkpt>
      <trkpt lat="43.66381" lon="1.80682">
        <ele>205</ele>
        <time>2025-02-18T13:33:36Z</time>
      </trkpt>
      <trkpt lat="43.66344" lon="1.80688">
        <ele>205</ele>
        <time>2025-02-18T13:33:43Z</time>
      </trkpt>
      <trkpt lat="43.66325" lon="1.80692">
        <ele>206</ele>
        <time>2025-02-18T13:33:46Z</time>
      </trkpt>
      <trkpt lat="43.66305" lon="1.80699">
        <ele>207</ele>
        <time>2025-02-18T13:33:50Z</time>
      </trkpt>
      <trkpt lat="43.6622" lon="1.80735">
        <ele>211</ele>
        <time>2025-02-18T13:34:05Z</time>
      </trkpt>
      <trkpt lat="43.66206" lon="1.80739">
        <ele>211</ele>
        <time>2025-02-18T13:34:08Z</time>
      </trkpt>
      <trkpt lat="43.66194" lon="1.80742">
        <ele>212</ele>
        <time>2025-02-18T13:34:10Z</time>
      </trkpt>
      <trkpt lat="43.66184" lon="1.80743">
        <ele>212</ele>
        <time>2025-02-18T13:34:12Z</time>
      </trkpt>
      <trkpt lat="43.66172" lon="1.80743">
        <ele>213</ele>
        <time>2025-02-18T13:34:14Z</time>
      </trkpt>
      <trkpt lat="43.66137" lon="1.80739">
        <ele>214</ele>
        <time>2025-02-18T13:34:20Z</time>
      </trkpt>
      <trkpt lat="43.661" lon="1.80731">
        <ele>214</ele>
        <time>2025-02-18T13:34:27Z</time>
      </trkpt>
      <trkpt lat="43.66069" lon="1.80722">
        <ele>216</ele>
        <time>2025-02-18T13:34:33Z</time>
      </trkpt>
      <trkpt lat="43.66057" lon="1.8072">
        <ele>216</ele>
        <time>2025-02-18T13:34:35Z</time>
      </trkpt>
      <trkpt lat="43.66046" lon="1.8072">
        <ele>217</ele>
        <time>2025-02-18T13:34:37Z</time>
      </trkpt>
      <trkpt lat="43.66037" lon="1.80722">
        <ele>217</ele>
        <time>2025-02-18T13:34:38Z</time>
      </trkpt>
      <trkpt lat="43.66024" lon="1.80728">
        <ele>218</ele>
        <time>2025-02-18T13:34:41Z</time>
      </trkpt>
      <trkpt lat="43.6601" lon="1.80737">
        <ele>218</ele>
        <time>2025-02-18T13:34:44Z</time>
      </trkpt>
      <trkpt lat="43.65993" lon="1.80752">
        <ele>219</ele>
        <time>2025-02-18T13:34:47Z</time>
      </trkpt>
      <trkpt lat="43.65966" lon="1.8078">
        <ele>217</ele>
        <time>2025-02-18T13:34:53Z</time>
      </trkpt>
      <trkpt lat="43.65813" lon="1.80955">
        <ele>218</ele>
        <time>2025-02-18T13:35:29Z</time>
      </trkpt>
      <trkpt lat="43.65756" lon="1.8102">
        <ele>219</ele>
        <time>2025-02-18T13:35:42Z</time>
      </trkpt>
      <trkpt lat="43.65657" lon="1.81115">
        <ele>224</ele>
        <time>2025-02-18T13:36:03Z</time>
      </trkpt>
      <trkpt lat="43.65625" lon="1.81142">
        <ele>224</ele>
        <time>2025-02-18T13:36:10Z</time>
      </trkpt>
      <trkpt lat="43.65497" lon="1.81224">
        <ele>228</ele>
        <time>2025-02-18T13:36:35Z</time>
      </trkpt>
      <trkpt lat="43.65397" lon="1.81268">
        <ele>232</ele>
        <time>2025-02-18T13:36:54Z</time>
      </trkpt>
      <trkpt lat="43.65357" lon="1.81284">
        <ele>233</ele>
        <time>2025-02-18T13:37:01Z</time>
      </trkpt>
      <trkpt lat="43.65347" lon="1.8129">
        <ele>234</ele>
        <time>2025-02-18T13:37:03Z</time>
      </trkpt>
      <trkpt lat="43.65334" lon="1.81301">
        <ele>235</ele>
        <time>2025-02-18T13:37:06Z</time>
      </trkpt>
      <trkpt lat="43.65309" lon="1.81326">
        <ele>235</ele>
        <time>2025-02-18T13:37:11Z</time>
      </trkpt>
      <trkpt lat="43.65279" lon="1.8136">
        <ele>235</ele>
        <time>2025-02-18T13:37:18Z</time>
      </trkpt>
      <trkpt lat="43.65226" lon="1.81423">
        <ele>237</ele>
        <time>2025-02-18T13:37:30Z</time>
      </trkpt>
      <trkpt lat="43.65166" lon="1.81498">
        <ele>243</ele>
        <time>2025-02-18T13:37:45Z</time>
      </trkpt>
      <trkpt lat="43.65146" lon="1.81525">
        <ele>242</ele>
        <time>2025-02-18T13:37:50Z</time>
      </trkpt>
      <trkpt lat="43.65124" lon="1.81557">
        <ele>243</ele>
        <time>2025-02-18T13:37:55Z</time>
      </trkpt>
      <trkpt lat="43.65111" lon="1.8158">
        <ele>244</ele>
        <time>2025-02-18T13:37:59Z</time>
      </trkpt>
      <trkpt lat="43.65089" lon="1.81621">
        <ele>247</ele>
        <time>2025-02-18T13:38:06Z</time>
      </trkpt>
      <trkpt lat="43.65088" lon="1.81624">
        <ele>248</ele>
        <time>2025-02-18T13:38:06Z</time>
      </trkpt>
      <trkpt lat="43.65055" lon="1.81691">
        <ele>249</ele>
        <time>2025-02-18T13:38:17Z</time>
      </trkpt>
      <trkpt lat="43.65045" lon="1.81708">
        <ele>249</ele>
        <time>2025-02-18T13:38:19Z</time>
      </trkpt>
      <trkpt lat="43.65027" lon="1.81742">
        <ele>251</ele>
        <time>2025-02-18T13:38:25Z</time>
      </trkpt>
      <trkpt lat="43.65013" lon="1.81769">
        <ele>251</ele>
        <time>2025-02-18T13:38:29Z</time>
      </trkpt>
      <trkpt lat="43.65006" lon="1.81781">
        <ele>250</ele>
        <time>2025-02-18T13:38:31Z</time>
      </trkpt>
      <trkpt lat="43.64996" lon="1.81793">
        <ele>250</ele>
        <time>2025-02-18T13:38:34Z</time>
      </trkpt>
      <trkpt lat="43.64987" lon="1.81801">
        <ele>250</ele>
        <time>2025-02-18T13:38:35Z</time>
      </trkpt>
      <trkpt lat="43.6494" lon="1.81837">
        <ele>253</ele>
        <time>2025-02-18T13:38:45Z</time>
      </trkpt>
      <trkpt lat="43.6493" lon="1.81848">
        <ele>253</ele>
        <time>2025-02-18T13:38:47Z</time>
      </trkpt>
      <trkpt lat="43.64919" lon="1.81862">
        <ele>253</ele>
        <time>2025-02-18T13:38:50Z</time>
      </trkpt>
      <trkpt lat="43.64907" lon="1.81883">
        <ele>252</ele>
        <time>2025-02-18T13:38:53Z</time>
      </trkpt>
      <trkpt lat="43.64888" lon="1.81919">
        <ele>252</ele>
        <time>2025-02-18T13:38:59Z</time>
      </trkpt>
      <trkpt lat="43.6488" lon="1.81931">
        <ele>252</ele>
        <time>2025-02-18T13:39:01Z</time>
      </trkpt>
      <trkpt lat="43.64816" lon="1.82001">
        <ele>257</ele>
        <time>2025-02-18T13:39:16Z</time>
      </trkpt>
      <trkpt lat="43.64809" lon="1.82012">
        <ele>257</ele>
        <time>2025-02-18T13:39:18Z</time>
      </trkpt>
      <trkpt lat="43.64803" lon="1.82024">
        <ele>257</ele>
        <time>2025-02-18T13:39:20Z</time>
      </trkpt>
      <trkpt lat="43.64798" lon="1.82038">
        <ele>257</ele>
        <time>2025-02-18T13:39:22Z</time>
      </trkpt>
      <trkpt lat="43.64788" lon="1.82088">
        <ele>257</ele>
        <time>2025-02-18T13:39:28Z</time>
      </trkpt>
      <trkpt lat="43.64784" lon="1.82101">
        <ele>257</ele>
        <time>2025-02-18T13:39:30Z</time>
      </trkpt>
      <trkpt lat="43.64778" lon="1.82115">
        <ele>257</ele>
        <time>2025-02-18T13:39:32Z</time>
      </trkpt>
      <trkpt lat="43.64769" lon="1.8213">
        <ele>257</ele>
        <time>2025-02-18T13:39:35Z</time>
      </trkpt>
      <trkpt lat="43.64716" lon="1.8221">
        <ele>258</ele>
        <time>2025-02-18T13:39:49Z</time>
      </trkpt>
      <trkpt lat="43.64658" lon="1.82296">
        <ele>262</ele>
        <time>2025-02-18T13:40:04Z</time>
      </trkpt>
      <trkpt lat="43.64618" lon="1.82361">
        <ele>263</ele>
        <time>2025-02-18T13:40:15Z</time>
      </trkpt>
      <trkpt lat="43.64617" lon="1.82372">
        <ele>264</ele>
        <time>2025-02-18T13:40:16Z</time>
      </trkpt>
      <trkpt lat="43.64618" lon="1.82361">
        <ele>263</ele>
        <time>2025-02-18T13:40:18Z</time>
      </trkpt>
      <trkpt lat="43.64597" lon="1.8239">
        <ele>265</ele>
        <time>2025-02-18T13:40:23Z</time>
      </trkpt>
      <trkpt lat="43.64587" lon="1.824">
        <ele>266</ele>
        <time>2025-02-18T13:40:25Z</time>
      </trkpt>
      <trkpt lat="43.64579" lon="1.82408">
        <ele>267</ele>
        <time>2025-02-18T13:40:27Z</time>
      </trkpt>
      <trkpt lat="43.64539" lon="1.82436">
        <ele>267</ele>
        <time>2025-02-18T13:40:35Z</time>
      </trkpt>
      <trkpt lat="43.64529" lon="1.82445">
        <ele>267</ele>
        <time>2025-02-18T13:40:37Z</time>
      </trkpt>
      <trkpt lat="43.64513" lon="1.82465">
        <ele>268</ele>
        <time>2025-02-18T13:40:41Z</time>
      </trkpt>
      <trkpt lat="43.64483" lon="1.82499">
        <ele>270</ele>
        <time>2025-02-18T13:40:48Z</time>
      </trkpt>
      <trkpt lat="43.6447" lon="1.82512">
        <ele>271</ele>
        <time>2025-02-18T13:40:50Z</time>
      </trkpt>
      <trkpt lat="43.64409" lon="1.82565">
        <ele>272</ele>
        <time>2025-02-18T13:41:03Z</time>
      </trkpt>
      <trkpt lat="43.64398" lon="1.82578">
        <ele>272</ele>
        <time>2025-02-18T13:41:06Z</time>
      </trkpt>
      <trkpt lat="43.64371" lon="1.82612">
        <ele>273</ele>
        <time>2025-02-18T13:41:12Z</time>
      </trkpt>
      <trkpt lat="43.64363" lon="1.82619">
        <ele>273</ele>
        <time>2025-02-18T13:41:14Z</time>
      </trkpt>
      <trkpt lat="43.6435" lon="1.82628">
        <ele>273</ele>
        <time>2025-02-18T13:41:17Z</time>
      </trkpt>
      <trkpt lat="43.64339" lon="1.82631">
        <ele>273</ele>
        <time>2025-02-18T13:41:19Z</time>
      </trkpt>
      <trkpt lat="43.6433" lon="1.82632">
        <ele>273</ele>
        <time>2025-02-18T13:41:20Z</time>
      </trkpt>
      <trkpt lat="43.64315" lon="1.8263">
        <ele>273</ele>
        <time>2025-02-18T13:41:23Z</time>
      </trkpt>
      <trkpt lat="43.64308" lon="1.82628">
        <ele>273</ele>
        <time>2025-02-18T13:41:24Z</time>
      </trkpt>
      <trkpt lat="43.64303" lon="1.82625">
        <ele>273</ele>
        <time>2025-02-18T13:41:25Z</time>
      </trkpt>
      <trkpt lat="43.643" lon="1.82628">
        <ele>273</ele>
        <time>2025-02-18T13:41:26Z</time>
      </trkpt>
      <trkpt lat="43.64292" lon="1.82632">
        <ele>274</ele>
        <time>2025-02-18T13:41:27Z</time>
      </trkpt>
      <trkpt lat="43.64203" lon="1.82661">
        <ele>277</ele>
        <time>2025-02-18T13:41:44Z</time>
      </trkpt>
      <trkpt lat="43.64105" lon="1.82695">
        <ele>281</ele>
        <time>2025-02-18T13:42:02Z</time>
      </trkpt>
      <trkpt lat="43.64098" lon="1.82701">
        <ele>282</ele>
        <time>2025-02-18T13:42:03Z</time>
      </trkpt>
      <trkpt lat="43.64097" lon="1.82702">
        <ele>282</ele>
        <time>2025-02-18T13:42:03Z</time>
      </trkpt>
      <trkpt lat="43.64093" lon="1.82711">
        <ele>282</ele>
        <time>2025-02-18T13:42:05Z</time>
      </trkpt>
      <trkpt lat="43.64074" lon="1.8275">
        <ele>283</ele>
        <time>2025-02-18T13:42:11Z</time>
      </trkpt>
      <trkpt lat="43.64072" lon="1.82758">
        <ele>283</ele>
        <time>2025-02-18T13:42:12Z</time>
      </trkpt>
      <trkpt lat="43.64071" lon="1.82764">
        <ele>283</ele>
        <time>2025-02-18T13:42:13Z</time>
      </trkpt>
      <trkpt lat="43.64072" lon="1.82771">
        <ele>283</ele>
        <time>2025-02-18T13:42:14Z</time>
      </trkpt>
      <trkpt lat="43.64076" lon="1.82784">
        <ele>284</ele>
        <time>2025-02-18T13:42:15Z</time>
      </trkpt>
      <trkpt lat="43.64084" lon="1.828">
        <ele>284</ele>
        <time>2025-02-18T13:42:18Z</time>
      </trkpt>
      <trkpt lat="43.64091" lon="1.82811">
        <ele>284</ele>
        <time>2025-02-18T13:42:20Z</time>
      </trkpt>
      <trkpt lat="43.64109" lon="1.82836">
        <ele>283</ele>
        <time>2025-02-18T13:42:24Z</time>
      </trkpt>
      <trkpt lat="43.64159" lon="1.829">
        <ele>285</ele>
        <time>2025-02-18T13:42:36Z</time>
      </trkpt>
      <trkpt lat="43.64167" lon="1.82912">
        <ele>286</ele>
        <time>2025-02-18T13:42:38Z</time>
      </trkpt>
      <trkpt lat="43.64185" lon="1.82944">
        <ele>286</ele>
        <time>2025-02-18T13:42:44Z</time>
      </trkpt>
      <trkpt lat="43.64202" lon="1.82977">
        <ele>285</ele>
        <time>2025-02-18T13:42:49Z</time>
      </trkpt>
      <trkpt lat="43.64208" lon="1.82994">
        <ele>284</ele>
        <time>2025-02-18T13:42:51Z</time>
      </trkpt>
      <trkpt lat="43.6421" lon="1.83002">
        <ele>284</ele>
        <time>2025-02-18T13:42:52Z</time>
      </trkpt>
      <trkpt lat="43.64211" lon="1.83012">
        <ele>284</ele>
        <time>2025-02-18T13:42:54Z</time>
      </trkpt>
      <trkpt lat="43.64208" lon="1.83083">
        <ele>283</ele>
        <time>2025-02-18T13:43:03Z</time>
      </trkpt>
      <trkpt lat="43.64203" lon="1.83164">
        <ele>283</ele>
        <time>2025-02-18T13:43:13Z</time>
      </trkpt>
      <trkpt lat="43.64201" lon="1.83182">
        <ele>282</ele>
        <time>2025-02-18T13:43:16Z</time>
      </trkpt>
      <trkpt lat="43.64198" lon="1.83199">
        <ele>282</ele>
        <time>2025-02-18T13:43:18Z</time>
      </trkpt>
      <trkpt lat="43.64193" lon="1.83213">
        <ele>282</ele>
        <time>2025-02-18T13:43:20Z</time>
      </trkpt>
      <trkpt lat="43.64189" lon="1.83225">
        <ele>282</ele>
        <time>2025-02-18T13:43:22Z</time>
      </trkpt>
      <trkpt lat="43.64182" lon="1.83238">
        <ele>283</ele>
        <time>2025-02-18T13:43:24Z</time>
      </trkpt>
      <trkpt lat="43.64175" lon="1.83249">
        <ele>283</ele>
        <time>2025-02-18T13:43:26Z</time>
      </trkpt>
      <trkpt lat="43.64168" lon="1.83258">
        <ele>283</ele>
        <time>2025-02-18T13:43:27Z</time>
      </trkpt>
      <trkpt lat="43.6413" lon="1.83294">
        <ele>279</ele>
        <time>2025-02-18T13:43:36Z</time>
      </trkpt>
      <trkpt lat="43.64119" lon="1.83307">
        <ele>278</ele>
        <time>2025-02-18T13:43:38Z</time>
      </trkpt>
      <trkpt lat="43.64108" lon="1.83322">
        <ele>277</ele>
        <time>2025-02-18T13:43:41Z</time>
      </trkpt>
      <trkpt lat="43.64099" lon="1.83338">
        <ele>276</ele>
        <time>2025-02-18T13:43:43Z</time>
      </trkpt>
      <trkpt lat="43.64087" lon="1.83369">
        <ele>275</ele>
        <time>2025-02-18T13:43:48Z</time>
      </trkpt>
      <trkpt lat="43.64076" lon="1.83419">
        <ele>272</ele>
        <time>2025-02-18T13:43:55Z</time>
      </trkpt>
      <trkpt lat="43.64069" lon="1.83472">
        <ele>272</ele>
        <time>2025-02-18T13:44:02Z</time>
      </trkpt>
      <trkpt lat="43.64067" lon="1.83501">
        <ele>272</ele>
        <time>2025-02-18T13:44:05Z</time>
      </trkpt>
      <trkpt lat="43.64062" lon="1.83559">
        <ele>274</ele>
        <time>2025-02-18T13:44:13Z</time>
      </trkpt>
      <trkpt lat="43.64055" lon="1.83633">
        <ele>277</ele>
        <time>2025-02-18T13:44:23Z</time>
      </trkpt>
      <trkpt lat="43.64049" lon="1.83707">
        <ele>281</ele>
        <time>2025-02-18T13:44:32Z</time>
      </trkpt>
      <trkpt lat="43.64041" lon="1.83779">
        <ele>282</ele>
        <time>2025-02-18T13:44:42Z</time>
      </trkpt>
      <trkpt lat="43.64032" lon="1.83836">
        <ele>281</ele>
        <time>2025-02-18T13:44:49Z</time>
      </trkpt>
      <trkpt lat="43.64027" lon="1.83861">
        <ele>281</ele>
        <time>2025-02-18T13:44:52Z</time>
      </trkpt>
      <trkpt lat="43.64015" lon="1.83911">
        <ele>281</ele>
        <time>2025-02-18T13:44:59Z</time>
      </trkpt>
      <trkpt lat="43.64007" lon="1.83939">
        <ele>281</ele>
        <time>2025-02-18T13:45:03Z</time>
      </trkpt>
      <trkpt lat="43.63983" lon="1.84005">
        <ele>279</ele>
        <time>2025-02-18T13:45:13Z</time>
      </trkpt>
      <trkpt lat="43.63955" lon="1.84076">
        <ele>280</ele>
        <time>2025-02-18T13:45:23Z</time>
      </trkpt>
      <trkpt lat="43.63946" lon="1.84094">
        <ele>280</ele>
        <time>2025-02-18T13:45:26Z</time>
      </trkpt>
      <trkpt lat="43.63936" lon="1.8411">
        <ele>279</ele>
        <time>2025-02-18T13:45:29Z</time>
      </trkpt>
      <trkpt lat="43.63917" lon="1.84133">
        <ele>279</ele>
        <time>2025-02-18T13:45:33Z</time>
      </trkpt>
      <trkpt lat="43.63871" lon="1.84179">
        <ele>279</ele>
        <time>2025-02-18T13:45:43Z</time>
      </trkpt>
      <trkpt lat="43.63861" lon="1.84187">
        <ele>279</ele>
        <time>2025-02-18T13:45:45Z</time>
      </trkpt>
      <trkpt lat="43.63816" lon="1.84232">
        <ele>278</ele>
        <time>2025-02-18T13:45:55Z</time>
      </trkpt>
      <trkpt lat="43.63762" lon="1.84314">
        <ele>277</ele>
        <time>2025-02-18T13:46:09Z</time>
      </trkpt>
      <trkpt lat="43.63656" lon="1.8446">
        <ele>284</ele>
        <time>2025-02-18T13:46:36Z</time>
      </trkpt>
      <trkpt lat="43.63617" lon="1.84519">
        <ele>283</ele>
        <time>2025-02-18T13:46:46Z</time>
      </trkpt>
      <trkpt lat="43.63597" lon="1.84564">
        <ele>283</ele>
        <time>2025-02-18T13:46:53Z</time>
      </trkpt>
      <trkpt lat="43.6357" lon="1.84634">
        <ele>282</ele>
        <time>2025-02-18T13:47:03Z</time>
      </trkpt>
      <trkpt lat="43.63563" lon="1.84653">
        <ele>281</ele>
        <time>2025-02-18T13:47:06Z</time>
      </trkpt>
      <trkpt lat="43.6357" lon="1.84634">
        <ele>282</ele>
        <time>2025-02-18T13:47:09Z</time>
      </trkpt>
      <trkpt lat="43.63546" lon="1.84638">
        <ele>283</ele>
        <time>2025-02-18T13:47:13Z</time>
      </trkpt>
      <trkpt lat="43.63492" lon="1.84648">
        <ele>286</ele>
        <time>2025-02-18T13:47:23Z</time>
      </trkpt>
      <trkpt lat="43.63439" lon="1.84657">
        <ele>287</ele>
        <time>2025-02-18T13:47:32Z</time>
      </trkpt>
      <trkpt lat="43.63422" lon="1.84654">
        <ele>287</ele>
        <time>2025-02-18T13:47:35Z</time>
      </trkpt>
      <trkpt lat="43.63351" lon="1.84621">
        <ele>289</ele>
        <time>2025-02-18T13:47:49Z</time>
      </trkpt>
      <trkpt lat="43.63342" lon="1.84615">
        <ele>290</ele>
        <time>2025-02-18T13:47:50Z</time>
      </trkpt>
      <trkpt lat="43.63333" lon="1.84602">
        <ele>290</ele>
        <time>2025-02-18T13:47:53Z</time>
      </trkpt>
      <trkpt lat="43.63326" lon="1.84581">
        <ele>291</ele>
        <time>2025-02-18T13:47:56Z</time>
      </trkpt>
      <trkpt lat="43.6332" lon="1.8456">
        <ele>290</ele>
        <time>2025-02-18T13:47:59Z</time>
      </trkpt>
      <trkpt lat="43.63315" lon="1.84539">
        <ele>290</ele>
        <time>2025-02-18T13:48:01Z</time>
      </trkpt>
      <trkpt lat="43.63307" lon="1.84528">
        <ele>290</ele>
        <time>2025-02-18T13:48:03Z</time>
      </trkpt>
      <trkpt lat="43.63296" lon="1.84522">
        <ele>290</ele>
        <time>2025-02-18T13:48:06Z</time>
      </trkpt>
      <trkpt lat="43.63243" lon="1.84526">
        <ele>293</ele>
        <time>2025-02-18T13:48:15Z</time>
      </trkpt>
      <trkpt lat="43.63222" lon="1.84521">
        <ele>293</ele>
        <time>2025-02-18T13:48:19Z</time>
      </trkpt>
      <trkpt lat="43.63191" lon="1.84503">
        <ele>291</ele>
        <time>2025-02-18T13:48:25Z</time>
      </trkpt>
      <trkpt lat="43.63176" lon="1.84501">
        <ele>291</ele>
        <time>2025-02-18T13:48:27Z</time>
      </trkpt>
      <trkpt lat="43.63161" lon="1.84508">
        <ele>291</ele>
        <time>2025-02-18T13:48:30Z</time>
      </trkpt>
      <trkpt lat="43.63118" lon="1.8454">
        <ele>290</ele>
        <time>2025-02-18T13:48:39Z</time>
      </trkpt>
      <trkpt lat="43.63101" lon="1.84549">
        <ele>290</ele>
        <time>2025-02-18T13:48:42Z</time>
      </trkpt>
      <trkpt lat="43.63093" lon="1.8455">
        <ele>290</ele>
        <time>2025-02-18T13:48:44Z</time>
      </trkpt>
      <trkpt lat="43.6306" lon="1.84556">
        <ele>288</ele>
        <time>2025-02-18T13:48:50Z</time>
      </trkpt>
      <trkpt lat="43.63" lon="1.84584">
        <ele>286</ele>
        <time>2025-02-18T13:49:01Z</time>
      </trkpt>
      <trkpt lat="43.62986" lon="1.84587">
        <ele>286</ele>
        <time>2025-02-18T13:49:03Z</time>
      </trkpt>
      <trkpt lat="43.62971" lon="1.84587">
        <ele>287</ele>
        <time>2025-02-18T13:49:06Z</time>
      </trkpt>
      <trkpt lat="43.62955" lon="1.84578">
        <ele>286</ele>
        <time>2025-02-18T13:49:09Z</time>
      </trkpt>
      <trkpt lat="43.62934" lon="1.84558">
        <ele>284</ele>
        <time>2025-02-18T13:49:14Z</time>
      </trkpt>
      <trkpt lat="43.62914" lon="1.84539">
        <ele>283</ele>
        <time>2025-02-18T13:49:18Z</time>
      </trkpt>
      <trkpt lat="43.62875" lon="1.84506">
        <ele>279</ele>
        <time>2025-02-18T13:49:26Z</time>
      </trkpt>
      <trkpt lat="43.62857" lon="1.84496">
        <ele>279</ele>
        <time>2025-02-18T13:49:30Z</time>
      </trkpt>
      <trkpt lat="43.62737" lon="1.84483">
        <ele>280</ele>
        <time>2025-02-18T13:49:51Z</time>
      </trkpt>
      <trkpt lat="43.62687" lon="1.84467">
        <ele>282</ele>
        <time>2025-02-18T13:50:00Z</time>
      </trkpt>
      <trkpt lat="43.62654" lon="1.84457">
        <ele>282</ele>
        <time>2025-02-18T13:50:06Z</time>
      </trkpt>
      <trkpt lat="43.62631" lon="1.84448">
        <ele>281</ele>
        <time>2025-02-18T13:50:10Z</time>
      </trkpt>
      <trkpt lat="43.62606" lon="1.84447">
        <ele>280</ele>
        <time>2025-02-18T13:50:15Z</time>
      </trkpt>
      <trkpt lat="43.62587" lon="1.84451">
        <ele>280</ele>
        <time>2025-02-18T13:50:18Z</time>
      </trkpt>
      <trkpt lat="43.62584" lon="1.84444">
        <ele>279</ele>
        <time>2025-02-18T13:50:19Z</time>
      </trkpt>
      <trkpt lat="43.62577" lon="1.84421">
        <ele>279</ele>
        <time>2025-02-18T13:50:22Z</time>
      </trkpt>
      <trkpt lat="43.62531" lon="1.84214">
        <ele>269</ele>
        <time>2025-02-18T13:50:50Z</time>
      </trkpt>
      <trkpt lat="43.62524" lon="1.84173">
        <ele>268</ele>
        <time>2025-02-18T13:50:56Z</time>
      </trkpt>
      <trkpt lat="43.6249" lon="1.84036">
        <ele>264</ele>
        <time>2025-02-18T13:51:14Z</time>
      </trkpt>
      <trkpt lat="43.62478" lon="1.83986">
        <ele>263</ele>
        <time>2025-02-18T13:51:21Z</time>
      </trkpt>
      <trkpt lat="43.62467" lon="1.83944">
        <ele>261</ele>
        <time>2025-02-18T13:51:27Z</time>
      </trkpt>
      <trkpt lat="43.62455" lon="1.83919">
        <ele>261</ele>
        <time>2025-02-18T13:51:31Z</time>
      </trkpt>
      <trkpt lat="43.62436" lon="1.83888">
        <ele>262</ele>
        <time>2025-02-18T13:51:36Z</time>
      </trkpt>
      <trkpt lat="43.62402" lon="1.83854">
        <ele>263</ele>
        <time>2025-02-18T13:51:44Z</time>
      </trkpt>
      <trkpt lat="43.62367" lon="1.8382">
        <ele>264</ele>
        <time>2025-02-18T13:51:51Z</time>
      </trkpt>
      <trkpt lat="43.62348" lon="1.83801">
        <ele>265</ele>
        <time>2025-02-18T13:51:55Z</time>
      </trkpt>
      <trkpt lat="43.62308" lon="1.8374">
        <ele>266</ele>
        <time>2025-02-18T13:52:06Z</time>
      </trkpt>
      <trkpt lat="43.62284" lon="1.83707">
        <ele>265</ele>
        <time>2025-02-18T13:52:12Z</time>
      </trkpt>
      <trkpt lat="43.62263" lon="1.83684">
        <ele>264</ele>
        <time>2025-02-18T13:52:17Z</time>
      </trkpt>
      <trkpt lat="43.62211" lon="1.83635">
        <ele>261</ele>
        <time>2025-02-18T13:52:28Z</time>
      </trkpt>
      <trkpt lat="43.622" lon="1.83621">
        <ele>260</ele>
        <time>2025-02-18T13:52:31Z</time>
      </trkpt>
      <trkpt lat="43.62165" lon="1.83561">
        <ele>260</ele>
        <time>2025-02-18T13:52:41Z</time>
      </trkpt>
      <trkpt lat="43.62123" lon="1.83473">
        <ele>260</ele>
        <time>2025-02-18T13:52:54Z</time>
      </trkpt>
      <trkpt lat="43.6212" lon="1.83455">
        <ele>259</ele>
        <time>2025-02-18T13:52:56Z</time>
      </trkpt>
      <trkpt lat="43.62122" lon="1.83428">
        <ele>259</ele>
        <time>2025-02-18T13:53:00Z</time>
      </trkpt>
      <trkpt lat="43.62135" lon="1.83376">
        <ele>257</ele>
        <time>2025-02-18T13:53:07Z</time>
      </trkpt>
      <trkpt lat="43.62148" lon="1.83323">
        <ele>256</ele>
        <time>2025-02-18T13:53:14Z</time>
      </trkpt>
      <trkpt lat="43.62164" lon="1.8326">
        <ele>254</ele>
        <time>2025-02-18T13:53:23Z</time>
      </trkpt>
      <trkpt lat="43.62159" lon="1.83241">
        <ele>254</ele>
        <time>2025-02-18T13:53:25Z</time>
      </trkpt>
      <trkpt lat="43.62156" lon="1.83218">
        <ele>255</ele>
        <time>2025-02-18T13:53:28Z</time>
      </trkpt>
      <trkpt lat="43.62148" lon="1.83147">
        <ele>256</ele>
        <time>2025-02-18T13:53:38Z</time>
      </trkpt>
      <trkpt lat="43.62141" lon="1.83102">
        <ele>258</ele>
        <time>2025-02-18T13:53:44Z</time>
      </trkpt>
      <trkpt lat="43.62137" lon="1.8309">
        <ele>258</ele>
        <time>2025-02-18T13:53:45Z</time>
      </trkpt>
      <trkpt lat="43.62133" lon="1.83081">
        <ele>259</ele>
        <time>2025-02-18T13:53:47Z</time>
      </trkpt>
      <trkpt lat="43.62128" lon="1.83073">
        <ele>259</ele>
        <time>2025-02-18T13:53:48Z</time>
      </trkpt>
      <trkpt lat="43.6212" lon="1.83064">
        <ele>259</ele>
        <time>2025-02-18T13:53:50Z</time>
      </trkpt>
      <trkpt lat="43.62111" lon="1.83058">
        <ele>259</ele>
        <time>2025-02-18T13:53:52Z</time>
      </trkpt>
      <trkpt lat="43.62103" lon="1.83055">
        <ele>260</ele>
        <time>2025-02-18T13:53:53Z</time>
      </trkpt>
      <trkpt lat="43.62052" lon="1.83049">
        <ele>259</ele>
        <time>2025-02-18T13:54:02Z</time>
      </trkpt>
      <trkpt lat="43.62032" lon="1.83046">
        <ele>258</ele>
        <time>2025-02-18T13:54:06Z</time>
      </trkpt>
      <trkpt lat="43.62013" lon="1.83041">
        <ele>257</ele>
        <time>2025-02-18T13:54:09Z</time>
      </trkpt>
      <trkpt lat="43.61993" lon="1.83034">
        <ele>257</ele>
        <time>2025-02-18T13:54:13Z</time>
      </trkpt>
      <trkpt lat="43.61935" lon="1.83009">
        <ele>259</ele>
        <time>2025-02-18T13:54:24Z</time>
      </trkpt>
      <trkpt lat="43.61922" lon="1.83">
        <ele>260</ele>
        <time>2025-02-18T13:54:26Z</time>
      </trkpt>
      <trkpt lat="43.61912" lon="1.82991">
        <ele>260</ele>
        <time>2025-02-18T13:54:28Z</time>
      </trkpt>
      <trkpt lat="43.61905" lon="1.82984">
        <ele>260</ele>
        <time>2025-02-18T13:54:30Z</time>
      </trkpt>
      <trkpt lat="43.61852" lon="1.8291">
        <ele>264</ele>
        <time>2025-02-18T13:54:43Z</time>
      </trkpt>
      <trkpt lat="43.61837" lon="1.82891">
        <ele>265</ele>
        <time>2025-02-18T13:54:47Z</time>
      </trkpt>
      <trkpt lat="43.61824" lon="1.82876">
        <ele>264</ele>
        <time>2025-02-18T13:54:50Z</time>
      </trkpt>
      <trkpt lat="43.61811" lon="1.82865">
        <ele>263</ele>
        <time>2025-02-18T13:54:53Z</time>
      </trkpt>
      <trkpt lat="43.61784" lon="1.82844">
        <ele>261</ele>
        <time>2025-02-18T13:54:58Z</time>
      </trkpt>
      <trkpt lat="43.61774" lon="1.82838">
        <ele>261</ele>
        <time>2025-02-18T13:55:00Z</time>
      </trkpt>
      <trkpt lat="43.61708" lon="1.82796">
        <ele>259</ele>
        <time>2025-02-18T13:55:13Z</time>
      </trkpt>
      <trkpt lat="43.61611" lon="1.82737">
        <ele>261</ele>
        <time>2025-02-18T13:55:32Z</time>
      </trkpt>
      <trkpt lat="43.616" lon="1.82727">
        <ele>261</ele>
        <time>2025-02-18T13:55:34Z</time>
      </trkpt>
      <trkpt lat="43.61596" lon="1.82722">
        <ele>261</ele>
        <time>2025-02-18T13:55:35Z</time>
      </trkpt>
      <trkpt lat="43.61592" lon="1.82715">
        <ele>261</ele>
        <time>2025-02-18T13:55:36Z</time>
      </trkpt>
      <trkpt lat="43.61588" lon="1.82705">
        <ele>261</ele>
        <time>2025-02-18T13:55:38Z</time>
      </trkpt>
      <trkpt lat="43.61554" lon="1.82612">
        <ele>264</ele>
        <time>2025-02-18T13:55:51Z</time>
      </trkpt>
      <trkpt lat="43.61548" lon="1.82596">
        <ele>264</ele>
        <time>2025-02-18T13:55:54Z</time>
      </trkpt>
      <trkpt lat="43.61537" lon="1.82575">
        <ele>265</ele>
        <time>2025-02-18T13:55:57Z</time>
      </trkpt>
      <trkpt lat="43.61531" lon="1.82566">
        <ele>265</ele>
        <time>2025-02-18T13:55:59Z</time>
      </trkpt>
      <trkpt lat="43.61516" lon="1.82549">
        <ele>265</ele>
        <time>2025-02-18T13:56:02Z</time>
      </trkpt>
      <trkpt lat="43.6151" lon="1.82543">
        <ele>265</ele>
        <time>2025-02-18T13:56:03Z</time>
      </trkpt>
      <trkpt lat="43.61441" lon="1.82481">
        <ele>267</ele>
        <time>2025-02-18T13:56:18Z</time>
      </trkpt>
      <trkpt lat="43.61426" lon="1.82468">
        <ele>267</ele>
        <time>2025-02-18T13:56:21Z</time>
      </trkpt>
      <trkpt lat="43.61411" lon="1.82449">
        <ele>267</ele>
        <time>2025-02-18T13:56:25Z</time>
      </trkpt>
      <trkpt lat="43.61405" lon="1.82441">
        <ele>266</ele>
        <time>2025-02-18T13:56:26Z</time>
      </trkpt>
      <trkpt lat="43.61397" lon="1.82423">
        <ele>265</ele>
        <time>2025-02-18T13:56:29Z</time>
      </trkpt>
      <trkpt lat="43.61389" lon="1.82405">
        <ele>264</ele>
        <time>2025-02-18T13:56:32Z</time>
      </trkpt>
      <trkpt lat="43.6137" lon="1.82355">
        <ele>264</ele>
        <time>2025-02-18T13:56:39Z</time>
      </trkpt>
      <trkpt lat="43.6136" lon="1.82364">
        <ele>263</ele>
        <time>2025-02-18T13:56:41Z</time>
      </trkpt>
      <trkpt lat="43.61364" lon="1.82377">
        <ele>263</ele>
        <time>2025-02-18T13:56:43Z</time>
      </trkpt>
      <trkpt lat="43.6137" lon="1.82394">
        <ele>263</ele>
        <time>2025-02-18T13:56:45Z</time>
      </trkpt>
      <trkpt lat="43.61364" lon="1.82377">
        <ele>263</ele>
        <time>2025-02-18T13:56:48Z</time>
      </trkpt>
      <trkpt lat="43.6136" lon="1.82364">
        <ele>263</ele>
        <time>2025-02-18T13:56:50Z</time>
      </trkpt>
      <trkpt lat="43.6137" lon="1.82355">
        <ele>264</ele>
        <time>2025-02-18T13:56:52Z</time>
      </trkpt>
      <trkpt lat="43.61363" lon="1.82335">
        <ele>264</ele>
        <time>2025-02-18T13:56:55Z</time>
      </trkpt>
      <trkpt lat="43.61358" lon="1.82323">
        <ele>264</ele>
        <time>2025-02-18T13:56:56Z</time>
      </trkpt>
      <trkpt lat="43.6138" lon="1.82279">
        <ele>262</ele>
        <time>2025-02-18T13:57:03Z</time>
      </trkpt>
      <trkpt lat="43.61382" lon="1.82271">
        <ele>261</ele>
        <time>2025-02-18T13:57:04Z</time>
      </trkpt>
      <trkpt lat="43.61383" lon="1.82255">
        <ele>260</ele>
        <time>2025-02-18T13:57:06Z</time>
      </trkpt>
      <trkpt lat="43.61382" lon="1.82243">
        <ele>260</ele>
        <time>2025-02-18T13:57:08Z</time>
      </trkpt>
      <trkpt lat="43.61379" lon="1.82229">
        <ele>259</ele>
        <time>2025-02-18T13:57:10Z</time>
      </trkpt>
      <trkpt lat="43.61372" lon="1.82192">
        <ele>257</ele>
        <time>2025-02-18T13:57:15Z</time>
      </trkpt>
      <trkpt lat="43.6136" lon="1.82139">
        <ele>256</ele>
        <time>2025-02-18T13:57:22Z</time>
      </trkpt>
      <trkpt lat="43.6135" lon="1.82082">
        <ele>257</ele>
        <time>2025-02-18T13:57:30Z</time>
      </trkpt>
      <trkpt lat="43.61345" lon="1.82043">
        <ele>257</ele>
        <time>2025-02-18T13:57:35Z</time>
      </trkpt>
      <trkpt lat="43.61345" lon="1.82002">
        <ele>256</ele>
        <time>2025-02-18T13:57:40Z</time>
      </trkpt>
      <trkpt lat="43.61347" lon="1.81965">
        <ele>257</ele>
        <time>2025-02-18T13:57:45Z</time>
      </trkpt>
      <trkpt lat="43.61353" lon="1.81922">
        <ele>257</ele>
        <time>2025-02-18T13:57:50Z</time>
      </trkpt>
      <trkpt lat="43.61368" lon="1.81859">
        <ele>257</ele>
        <time>2025-02-18T13:57:59Z</time>
      </trkpt>
      <trkpt lat="43.61386" lon="1.81788">
        <ele>258</ele>
        <time>2025-02-18T13:58:09Z</time>
      </trkpt>
      <trkpt lat="43.61398" lon="1.81783">
        <ele>258</ele>
        <time>2025-02-18T13:58:11Z</time>
      </trkpt>
      <trkpt lat="43.61606" lon="1.81647">
        <ele>248</ele>
        <time>2025-02-18T13:58:52Z</time>
      </trkpt>
      <trkpt lat="43.61621" lon="1.81633">
        <ele>247</ele>
        <time>2025-02-18T13:58:55Z</time>
      </trkpt>
      <trkpt lat="43.61634" lon="1.81615">
        <ele>247</ele>
        <time>2025-02-18T13:58:58Z</time>
      </trkpt>
      <trkpt lat="43.61933" lon="1.8114">
        <ele>229</ele>
        <time>2025-02-18T14:00:19Z</time>
      </trkpt>
      <trkpt lat="43.61955" lon="1.81109">
        <ele>228</ele>
        <time>2025-02-18T14:00:25Z</time>
      </trkpt>
      <trkpt lat="43.62308" lon="1.80714">
        <ele>216</ele>
        <time>2025-02-18T14:01:46Z</time>
      </trkpt>
      <trkpt lat="43.62377" lon="1.80637">
        <ele>212</ele>
        <time>2025-02-18T14:02:02Z</time>
      </trkpt>
      <trkpt lat="43.62393" lon="1.80618">
        <ele>211</ele>
        <time>2025-02-18T14:02:05Z</time>
      </trkpt>
      <trkpt lat="43.62411" lon="1.80596">
        <ele>210</ele>
        <time>2025-02-18T14:02:10Z</time>
      </trkpt>
      <trkpt lat="43.62424" lon="1.80573">
        <ele>210</ele>
        <time>2025-02-18T14:02:13Z</time>
      </trkpt>
      <trkpt lat="43.62431" lon="1.80558">
        <ele>210</ele>
        <time>2025-02-18T14:02:16Z</time>
      </trkpt>
      <trkpt lat="43.62436" lon="1.80545">
        <ele>211</ele>
        <time>2025-02-18T14:02:17Z</time>
      </trkpt>
      <trkpt lat="43.62439" lon="1.80528">
        <ele>211</ele>
        <time>2025-02-18T14:02:20Z</time>
      </trkpt>
      <trkpt lat="43.6244" lon="1.80511">
        <ele>212</ele>
        <time>2025-02-18T14:02:22Z</time>
      </trkpt>
      <trkpt lat="43.62438" lon="1.80496">
        <ele>212</ele>
        <time>2025-02-18T14:02:24Z</time>
      </trkpt>
      <trkpt lat="43.6241" lon="1.80414">
        <ele>209</ele>
        <time>2025-02-18T14:02:36Z</time>
      </trkpt>
      <trkpt lat="43.62391" lon="1.80362">
        <ele>202</ele>
        <time>2025-02-18T14:02:43Z</time>
      </trkpt>
      <trkpt lat="43.62382" lon="1.80347">
        <ele>201</ele>
        <time>2025-02-18T14:02:46Z</time>
      </trkpt>
      <trkpt lat="43.6235" lon="1.80301">
        <ele>197</ele>
        <time>2025-02-18T14:02:54Z</time>
      </trkpt>
      <trkpt lat="43.62338" lon="1.80287">
        <ele>196</ele>
        <time>2025-02-18T14:02:57Z</time>
      </trkpt>
      <trkpt lat="43.62314" lon="1.80262">
        <ele>195</ele>
        <time>2025-02-18T14:03:02Z</time>
      </trkpt>
      <trkpt lat="43.62246" lon="1.80198">
        <ele>195</ele>
        <time>2025-02-18T14:03:17Z</time>
      </trkpt>
      <trkpt lat="43.62232" lon="1.80183">
        <ele>195</ele>
        <time>2025-02-18T14:03:20Z</time>
      </trkpt>
      <trkpt lat="43.62222" lon="1.8017">
        <ele>194</ele>
        <time>2025-02-18T14:03:22Z</time>
      </trkpt>
      <trkpt lat="43.62217" lon="1.80159">
        <ele>194</ele>
        <time>2025-02-18T14:03:24Z</time>
      </trkpt>
      <trkpt lat="43.62206" lon="1.80128">
        <ele>195</ele>
        <time>2025-02-18T14:03:28Z</time>
      </trkpt>
      <trkpt lat="43.62201" lon="1.80116">
        <ele>195</ele>
        <time>2025-02-18T14:03:30Z</time>
      </trkpt>
      <trkpt lat="43.62193" lon="1.80103">
        <ele>195</ele>
        <time>2025-02-18T14:03:32Z</time>
      </trkpt>
      <trkpt lat="43.62173" lon="1.80079">
        <ele>193</ele>
        <time>2025-02-18T14:03:37Z</time>
      </trkpt>
      <trkpt lat="43.62163" lon="1.80066">
        <ele>193</ele>
        <time>2025-02-18T14:03:39Z</time>
      </trkpt>
      <trkpt lat="43.62159" lon="1.80058">
        <ele>193</ele>
        <time>2025-02-18T14:03:41Z</time>
      </trkpt>
      <trkpt lat="43.62157" lon="1.80049">
        <ele>193</ele>
        <time>2025-02-18T14:03:42Z</time>
      </trkpt>
      <trkpt lat="43.62156" lon="1.80037">
        <ele>193</ele>
        <time>2025-02-18T14:03:43Z</time>
      </trkpt>
      <trkpt lat="43.62166" lon="1.79946">
        <ele>196</ele>
        <time>2025-02-18T14:03:55Z</time>
      </trkpt>
      <trkpt lat="43.62168" lon="1.79938">
        <ele>196</ele>
        <time>2025-02-18T14:03:56Z</time>
      </trkpt>
      <trkpt lat="43.62173" lon="1.79938">
        <ele>196</ele>
        <time>2025-02-18T14:03:57Z</time>
      </trkpt>
      <trkpt lat="43.62168" lon="1.79938">
        <ele>196</ele>
        <time>2025-02-18T14:03:58Z</time>
      </trkpt>
      <trkpt lat="43.62166" lon="1.79932">
        <ele>196</ele>
        <time>2025-02-18T14:03:59Z</time>
      </trkpt>
      <trkpt lat="43.62148" lon="1.79906">
        <ele>197</ele>
        <time>2025-02-18T14:04:04Z</time>
      </trkpt>
      <trkpt lat="43.62127" lon="1.79872">
        <ele>199</ele>
        <time>2025-02-18T14:04:09Z</time>
      </trkpt>
      <trkpt lat="43.62114" lon="1.7985">
        <ele>199</ele>
        <time>2025-02-18T14:04:13Z</time>
      </trkpt>
      <trkpt lat="43.62104" lon="1.79829">
        <ele>199</ele>
        <time>2025-02-18T14:04:16Z</time>
      </trkpt>
      <trkpt lat="43.62018" lon="1.79641">
        <ele>196</ele>
        <time>2025-02-18T14:04:45Z</time>
      </trkpt>
      <trkpt lat="43.62008" lon="1.79612">
        <ele>194</ele>
        <time>2025-02-18T14:04:49Z</time>
      </trkpt>
      <trkpt lat="43.62" lon="1.79582">
        <ele>192</ele>
        <time>2025-02-18T14:04:53Z</time>
      </trkpt>
      <trkpt lat="43.6199" lon="1.79508">
        <ele>194</ele>
        <time>2025-02-18T14:05:03Z</time>
      </trkpt>
      <trkpt lat="43.61986" lon="1.79485">
        <ele>195</ele>
        <time>2025-02-18T14:05:06Z</time>
      </trkpt>
      <trkpt lat="43.61978" lon="1.79474">
        <ele>196</ele>
        <time>2025-02-18T14:05:08Z</time>
      </trkpt>
      <trkpt lat="43.61967" lon="1.79464">
        <ele>196</ele>
        <time>2025-02-18T14:05:10Z</time>
      </trkpt>
      <trkpt lat="43.61832" lon="1.79394">
        <ele>191</ele>
        <time>2025-02-18T14:05:36Z</time>
      </trkpt>
      <trkpt lat="43.61782" lon="1.79361">
        <ele>194</ele>
        <time>2025-02-18T14:05:46Z</time>
      </trkpt>
      <trkpt lat="43.61772" lon="1.79357">
        <ele>195</ele>
        <time>2025-02-18T14:05:48Z</time>
      </trkpt>
      <trkpt lat="43.61763" lon="1.79358">
        <ele>195</ele>
        <time>2025-02-18T14:05:49Z</time>
      </trkpt>
      <trkpt lat="43.61653" lon="1.79398">
        <ele>195</ele>
        <time>2025-02-18T14:06:10Z</time>
      </trkpt>
      <trkpt lat="43.6164" lon="1.79402">
        <ele>194</ele>
        <time>2025-02-18T14:06:12Z</time>
      </trkpt>
      <trkpt lat="43.61626" lon="1.79402">
        <ele>193</ele>
        <time>2025-02-18T14:06:14Z</time>
      </trkpt>
      <trkpt lat="43.61598" lon="1.79398">
        <ele>192</ele>
        <time>2025-02-18T14:06:19Z</time>
      </trkpt>
      <trkpt lat="43.61584" lon="1.79393">
        <ele>191</ele>
        <time>2025-02-18T14:06:22Z</time>
      </trkpt>
      <trkpt lat="43.61568" lon="1.79385">
        <ele>191</ele>
        <time>2025-02-18T14:06:25Z</time>
      </trkpt>
      <trkpt lat="43.61545" lon="1.7938">
        <ele>191</ele>
        <time>2025-02-18T14:06:29Z</time>
      </trkpt>
      <trkpt lat="43.61484" lon="1.79362">
        <ele>189</ele>
        <time>2025-02-18T14:06:40Z</time>
      </trkpt>
      <trkpt lat="43.61458" lon="1.79356">
        <ele>188</ele>
        <time>2025-02-18T14:06:45Z</time>
      </trkpt>
      <trkpt lat="43.6144" lon="1.79355">
        <ele>188</ele>
        <time>2025-02-18T14:06:48Z</time>
      </trkpt>
      <trkpt lat="43.61418" lon="1.7935">
        <ele>187</ele>
        <time>2025-02-18T14:06:52Z</time>
      </trkpt>
      <trkpt lat="43.61398" lon="1.79341">
        <ele>187</ele>
        <time>2025-02-18T14:06:56Z</time>
      </trkpt>
      <trkpt lat="43.6136" lon="1.79309">
        <ele>188</ele>
        <time>2025-02-18T14:07:04Z</time>
      </trkpt>
      <trkpt lat="43.61349" lon="1.79307">
        <ele>188</ele>
        <time>2025-02-18T14:07:06Z</time>
      </trkpt>
      <trkpt lat="43.61349" lon="1.79302">
        <ele>188</ele>
        <time>2025-02-18T14:07:06Z</time>
      </trkpt>
      <trkpt lat="43.61204" lon="1.79181">
        <ele>188</ele>
        <time>2025-02-18T14:07:37Z</time>
      </trkpt>
      <trkpt lat="43.61172" lon="1.79156">
        <ele>187</ele>
        <time>2025-02-18T14:07:43Z</time>
      </trkpt>
      <trkpt lat="43.6114" lon="1.79141">
        <ele>187</ele>
        <time>2025-02-18T14:07:49Z</time>
      </trkpt>
      <trkpt lat="43.6104" lon="1.7911">
        <ele>184</ele>
        <time>2025-02-18T14:08:07Z</time>
      </trkpt>
      <trkpt lat="43.61006" lon="1.79097">
        <ele>184</ele>
        <time>2025-02-18T14:08:14Z</time>
      </trkpt>
      <trkpt lat="43.6098" lon="1.79084">
        <ele>184</ele>
        <time>2025-02-18T14:08:19Z</time>
      </trkpt>
      <trkpt lat="43.6095" lon="1.79061">
        <ele>185</ele>
        <time>2025-02-18T14:08:25Z</time>
      </trkpt>
      <trkpt lat="43.60942" lon="1.79056">
        <ele>186</ele>
        <time>2025-02-18T14:08:26Z</time>
      </trkpt>
      <trkpt lat="43.6092" lon="1.7905">
        <ele>187</ele>
        <time>2025-02-18T14:08:30Z</time>
      </trkpt>
      <trkpt lat="43.60883" lon="1.7904">
        <ele>187</ele>
        <time>2025-02-18T14:08:37Z</time>
      </trkpt>
      <trkpt lat="43.608" lon="1.79015">
        <ele>187</ele>
        <time>2025-02-18T14:08:52Z</time>
      </trkpt>
      <trkpt lat="43.60785" lon="1.79011">
        <ele>187</ele>
        <time>2025-02-18T14:08:55Z</time>
      </trkpt>
      <trkpt lat="43.6077" lon="1.79012">
        <ele>185</ele>
        <time>2025-02-18T14:08:57Z</time>
      </trkpt>
      <trkpt lat="43.60752" lon="1.79016">
        <ele>184</ele>
        <time>2025-02-18T14:09:01Z</time>
      </trkpt>
      <trkpt lat="43.60747" lon="1.79021">
        <ele>183</ele>
        <time>2025-02-18T14:09:02Z</time>
      </trkpt>
      <trkpt lat="43.60741" lon="1.79018">
        <ele>183</ele>
        <time>2025-02-18T14:09:03Z</time>
      </trkpt>
      <trkpt lat="43.60727" lon="1.79016">
        <ele>183</ele>
        <time>2025-02-18T14:09:05Z</time>
      </trkpt>
      <trkpt lat="43.607" lon="1.79008">
        <ele>182</ele>
        <time>2025-02-18T14:09:10Z</time>
      </trkpt>
      <trkpt lat="43.60663" lon="1.78998">
        <ele>181</ele>
        <time>2025-02-18T14:09:17Z</time>
      </trkpt>
      <trkpt lat="43.60576" lon="1.78983">
        <ele>181</ele>
        <time>2025-02-18T14:09:33Z</time>
      </trkpt>
      <trkpt lat="43.60542" lon="1.78981">
        <ele>180</ele>
        <time>2025-02-18T14:09:39Z</time>
      </trkpt>
      <trkpt lat="43.60507" lon="1.78985">
        <ele>180</ele>
        <time>2025-02-18T14:09:45Z</time>
      </trkpt>
      <trkpt lat="43.6043" lon="1.79006">
        <ele>179</ele>
        <time>2025-02-18T14:09:59Z</time>
      </trkpt>
      <trkpt lat="43.60378" lon="1.79017">
        <ele>180</ele>
        <time>2025-02-18T14:10:08Z</time>
      </trkpt>
      <trkpt lat="43.60365" lon="1.7902">
        <ele>180</ele>
        <time>2025-02-18T14:10:11Z</time>
      </trkpt>
      <trkpt lat="43.6032" lon="1.79025">
        <ele>181</ele>
        <time>2025-02-18T14:10:19Z</time>
      </trkpt>
      <trkpt lat="43.60303" lon="1.79031">
        <ele>181</ele>
        <time>2025-02-18T14:10:22Z</time>
      </trkpt>
      <trkpt lat="43.60293" lon="1.79037">
        <ele>181</ele>
        <time>2025-02-18T14:10:24Z</time>
      </trkpt>
      <trkpt lat="43.60278" lon="1.79046">
        <ele>181</ele>
        <time>2025-02-18T14:10:27Z</time>
      </trkpt>
      <trkpt lat="43.60184" lon="1.79108">
        <ele>180</ele>
        <time>2025-02-18T14:10:45Z</time>
      </trkpt>
      <trkpt lat="43.60168" lon="1.79116">
        <ele>180</ele>
        <time>2025-02-18T14:10:48Z</time>
      </trkpt>
      <trkpt lat="43.60127" lon="1.79131">
        <ele>180</ele>
        <time>2025-02-18T14:10:56Z</time>
      </trkpt>
      <trkpt lat="43.60073" lon="1.79146">
        <ele>180</ele>
        <time>2025-02-18T14:11:05Z</time>
      </trkpt>
      <trkpt lat="43.60036" lon="1.7916">
        <ele>179</ele>
        <time>2025-02-18T14:11:12Z</time>
      </trkpt>
      <trkpt lat="43.59997" lon="1.7917">
        <ele>179</ele>
        <time>2025-02-18T14:11:19Z</time>
      </trkpt>
      <trkpt lat="43.59984" lon="1.79172">
        <ele>179</ele>
        <time>2025-02-18T14:11:22Z</time>
      </trkpt>
      <trkpt lat="43.59875" lon="1.79164">
        <ele>177</ele>
        <time>2025-02-18T14:11:41Z</time>
      </trkpt>
      <trkpt lat="43.59863" lon="1.79162">
        <ele>177</ele>
        <time>2025-02-18T14:11:43Z</time>
      </trkpt>
      <trkpt lat="43.59847" lon="1.7916">
        <ele>177</ele>
        <time>2025-02-18T14:11:46Z</time>
      </trkpt>
      <trkpt lat="43.5984" lon="1.7916">
        <ele>177</ele>
        <time>2025-02-18T14:11:47Z</time>
      </trkpt>
      <trkpt lat="43.59832" lon="1.79163">
        <ele>177</ele>
        <time>2025-02-18T14:11:49Z</time>
      </trkpt>
      <trkpt lat="43.59826" lon="1.79168">
        <ele>177</ele>
        <time>2025-02-18T14:11:50Z</time>
      </trkpt>
      <trkpt lat="43.59822" lon="1.79176">
        <ele>177</ele>
        <time>2025-02-18T14:11:51Z</time>
      </trkpt>
      <trkpt lat="43.59826" lon="1.79168">
        <ele>177</ele>
        <time>2025-02-18T14:11:53Z</time>
      </trkpt>
      <trkpt lat="43.59831" lon="1.79159">
        <ele>177</ele>
        <time>2025-02-18T14:11:54Z</time>
      </trkpt>
      <trkpt lat="43.59837" lon="1.79142">
        <ele>178</ele>
        <time>2025-02-18T14:11:57Z</time>
      </trkpt>
      <trkpt lat="43.59843" lon="1.79119">
        <ele>178</ele>
        <time>2025-02-18T14:12:00Z</time>
      </trkpt>
      <trkpt lat="43.59852" lon="1.7908">
        <ele>180</ele>
        <time>2025-02-18T14:12:05Z</time>
      </trkpt>
      <trkpt lat="43.59864" lon="1.79044">
        <ele>181</ele>
        <time>2025-02-18T14:12:10Z</time>
      </trkpt>
      <trkpt lat="43.59879" lon="1.79009">
        <ele>182</ele>
        <time>2025-02-18T14:12:15Z</time>
      </trkpt>
      <trkpt lat="43.59886" lon="1.78988">
        <ele>182</ele>
        <time>2025-02-18T14:12:18Z</time>
      </trkpt>
      <trkpt lat="43.59906" lon="1.789">
        <ele>184</ele>
        <time>2025-02-18T14:12:30Z</time>
      </trkpt>
      <trkpt lat="43.59927" lon="1.78836">
        <ele>185</ele>
        <time>2025-02-18T14:12:39Z</time>
      </trkpt>
      <trkpt lat="43.5994" lon="1.78797">
        <ele>187</ele>
        <time>2025-02-18T14:12:45Z</time>
      </trkpt>
      <trkpt lat="43.59958" lon="1.78747">
        <ele>189</ele>
        <time>2025-02-18T14:12:52Z</time>
      </trkpt>
      <trkpt lat="43.59982" lon="1.78694">
        <ele>189</ele>
        <time>2025-02-18T14:13:00Z</time>
      </trkpt>
      <trkpt lat="43.59986" lon="1.78682">
        <ele>189</ele>
        <time>2025-02-18T14:13:02Z</time>
      </trkpt>
      <trkpt lat="43.59988" lon="1.7867">
        <ele>189</ele>
        <time>2025-02-18T14:13:03Z</time>
      </trkpt>
      <trkpt lat="43.59987" lon="1.78663">
        <ele>190</ele>
        <time>2025-02-18T14:13:04Z</time>
      </trkpt>
      <trkpt lat="43.59985" lon="1.78657">
        <ele>190</ele>
        <time>2025-02-18T14:13:05Z</time>
      </trkpt>
      <trkpt lat="43.5998" lon="1.78652">
        <ele>190</ele>
        <time>2025-02-18T14:13:06Z</time>
      </trkpt>
      <trkpt lat="43.59929" lon="1.78627">
        <ele>193</ele>
        <time>2025-02-18T14:13:16Z</time>
      </trkpt>
      <trkpt lat="43.59919" lon="1.78618">
        <ele>193</ele>
        <time>2025-02-18T14:13:18Z</time>
      </trkpt>
      <trkpt lat="43.59917" lon="1.78613">
        <ele>194</ele>
        <time>2025-02-18T14:13:19Z</time>
      </trkpt>
      <trkpt lat="43.59915" lon="1.78607">
        <ele>194</ele>
        <time>2025-02-18T14:13:19Z</time>
      </trkpt>
      <trkpt lat="43.59913" lon="1.78577">
        <ele>194</ele>
        <time>2025-02-18T14:13:23Z</time>
      </trkpt>
      <trkpt lat="43.59912" lon="1.78554">
        <ele>195</ele>
        <time>2025-02-18T14:13:26Z</time>
      </trkpt>
      <trkpt lat="43.59914" lon="1.78489">
        <ele>196</ele>
        <time>2025-02-18T14:13:35Z</time>
      </trkpt>
      <trkpt lat="43.59913" lon="1.78483">
        <ele>196</ele>
        <time>2025-02-18T14:13:36Z</time>
      </trkpt>
      <trkpt lat="43.5991" lon="1.78477">
        <ele>196</ele>
        <time>2025-02-18T14:13:36Z</time>
      </trkpt>
      <trkpt lat="43.59916" lon="1.78473">
        <ele>196</ele>
        <time>2025-02-18T14:13:38Z</time>
      </trkpt>
      <trkpt lat="43.59921" lon="1.78463">
        <ele>196</ele>
        <time>2025-02-18T14:13:39Z</time>
      </trkpt>
      <trkpt lat="43.59943" lon="1.78408">
        <ele>196</ele>
        <time>2025-02-18T14:13:47Z</time>
      </trkpt>
      <trkpt lat="43.59959" lon="1.78376">
        <ele>196</ele>
        <time>2025-02-18T14:13:52Z</time>
      </trkpt>
      <trkpt lat="43.59976" lon="1.78349">
        <ele>196</ele>
        <time>2025-02-18T14:13:57Z</time>
      </trkpt>
      <trkpt lat="43.60002" lon="1.78311">
        <ele>197</ele>
        <time>2025-02-18T14:14:04Z</time>
      </trkpt>
      <trkpt lat="43.60093" lon="1.78183">
        <ele>194</ele>
        <time>2025-02-18T14:14:27Z</time>
      </trkpt>
      <trkpt lat="43.60112" lon="1.78151">
        <ele>193</ele>
        <time>2025-02-18T14:14:32Z</time>
      </trkpt>
      <trkpt lat="43.60184" lon="1.78">
        <ele>197</ele>
        <time>2025-02-18T14:14:55Z</time>
      </trkpt>
      <trkpt lat="43.60193" lon="1.77984">
        <ele>198</ele>
        <time>2025-02-18T14:14:58Z</time>
      </trkpt>
      <trkpt lat="43.60209" lon="1.77985">
        <ele>198</ele>
        <time>2025-02-18T14:15:01Z</time>
      </trkpt>
      <trkpt lat="43.60219" lon="1.7799">
        <ele>199</ele>
        <time>2025-02-18T14:15:03Z</time>
      </trkpt>
      <trkpt lat="43.60306" lon="1.78059">
        <ele>200</ele>
        <time>2025-02-18T14:15:21Z</time>
      </trkpt>
      <trkpt lat="43.60317" lon="1.78063">
        <ele>200</ele>
        <time>2025-02-18T14:15:23Z</time>
      </trkpt>
      <trkpt lat="43.60322" lon="1.78063">
        <ele>200</ele>
        <time>2025-02-18T14:15:24Z</time>
      </trkpt>
      <trkpt lat="43.60326" lon="1.78062">
        <ele>200</ele>
        <time>2025-02-18T14:15:24Z</time>
      </trkpt>
      <trkpt lat="43.60336" lon="1.78056">
        <ele>201</ele>
        <time>2025-02-18T14:15:26Z</time>
      </trkpt>
      <trkpt lat="43.60349" lon="1.78038">
        <ele>201</ele>
        <time>2025-02-18T14:15:29Z</time>
      </trkpt>
      <trkpt lat="43.60377" lon="1.77991">
        <ele>202</ele>
        <time>2025-02-18T14:15:37Z</time>
      </trkpt>
      <trkpt lat="43.60394" lon="1.77953">
        <ele>202</ele>
        <time>2025-02-18T14:15:43Z</time>
      </trkpt>
      <trkpt lat="43.60419" lon="1.77905">
        <ele>203</ele>
        <time>2025-02-18T14:15:51Z</time>
      </trkpt>
      <trkpt lat="43.60676" lon="1.77526">
        <ele>212</ele>
        <time>2025-02-18T14:16:58Z</time>
      </trkpt>
      <trkpt lat="43.60687" lon="1.77512">
        <ele>212</ele>
        <time>2025-02-18T14:17:00Z</time>
      </trkpt>
      <trkpt lat="43.60696" lon="1.77521">
        <ele>212</ele>
        <time>2025-02-18T14:17:02Z</time>
      </trkpt>
      <trkpt lat="43.60707" lon="1.77531">
        <ele>212</ele>
        <time>2025-02-18T14:17:05Z</time>
      </trkpt>
      <trkpt lat="43.60718" lon="1.77539">
        <ele>213</ele>
        <time>2025-02-18T14:17:07Z</time>
      </trkpt>
      <trkpt lat="43.60739" lon="1.7755">
        <ele>214</ele>
        <time>2025-02-18T14:17:11Z</time>
      </trkpt>
      <trkpt lat="43.6075" lon="1.77555">
        <ele>214</ele>
        <time>2025-02-18T14:17:13Z</time>
      </trkpt>
      <trkpt lat="43.60764" lon="1.7756">
        <ele>214</ele>
        <time>2025-02-18T14:17:15Z</time>
      </trkpt>
      <trkpt lat="43.60778" lon="1.77564">
        <ele>215</ele>
        <time>2025-02-18T14:17:18Z</time>
      </trkpt>
      <trkpt lat="43.60803" lon="1.77569">
        <ele>216</ele>
        <time>2025-02-18T14:17:22Z</time>
      </trkpt>
      <trkpt lat="43.60833" lon="1.77572">
        <ele>217</ele>
        <time>2025-02-18T14:17:28Z</time>
      </trkpt>
      <trkpt lat="43.60853" lon="1.77573">
        <ele>217</ele>
        <time>2025-02-18T14:17:31Z</time>
      </trkpt>
      <trkpt lat="43.6087" lon="1.77573">
        <ele>218</ele>
        <time>2025-02-18T14:17:34Z</time>
      </trkpt>
      <trkpt lat="43.60898" lon="1.77569">
        <ele>219</ele>
        <time>2025-02-18T14:17:39Z</time>
      </trkpt>
      <trkpt lat="43.60918" lon="1.77565">
        <ele>219</ele>
        <time>2025-02-18T14:17:43Z</time>
      </trkpt>
      <trkpt lat="43.6095" lon="1.77553">
        <ele>221</ele>
        <time>2025-02-18T14:17:49Z</time>
      </trkpt>
      <trkpt lat="43.60965" lon="1.77546">
        <ele>221</ele>
        <time>2025-02-18T14:17:52Z</time>
      </trkpt>
      <trkpt lat="43.61001" lon="1.77527">
        <ele>223</ele>
        <time>2025-02-18T14:17:59Z</time>
      </trkpt>
      <trkpt lat="43.61022" lon="1.77509">
        <ele>225</ele>
        <time>2025-02-18T14:18:03Z</time>
      </trkpt>
      <trkpt lat="43.61041" lon="1.77491">
        <ele>226</ele>
        <time>2025-02-18T14:18:07Z</time>
      </trkpt>
      <trkpt lat="43.61057" lon="1.7747">
        <ele>227</ele>
        <time>2025-02-18T14:18:11Z</time>
      </trkpt>
      <trkpt lat="43.61066" lon="1.77458">
        <ele>227</ele>
        <time>2025-02-18T14:18:13Z</time>
      </trkpt>
      <trkpt lat="43.61085" lon="1.77426">
        <ele>227</ele>
        <time>2025-02-18T14:18:19Z</time>
      </trkpt>
      <trkpt lat="43.61143" lon="1.77315">
        <ele>229</ele>
        <time>2025-02-18T14:18:36Z</time>
      </trkpt>
      <trkpt lat="43.61153" lon="1.77301">
        <ele>229</ele>
        <time>2025-02-18T14:18:39Z</time>
      </trkpt>
      <trkpt lat="43.61162" lon="1.77294">
        <ele>230</ele>
        <time>2025-02-18T14:18:41Z</time>
      </trkpt>
      <trkpt lat="43.61167" lon="1.77293">
        <ele>230</ele>
        <time>2025-02-18T14:18:41Z</time>
      </trkpt>
      <trkpt lat="43.61175" lon="1.77292">
        <ele>230</ele>
        <time>2025-02-18T14:18:43Z</time>
      </trkpt>
      <trkpt lat="43.61182" lon="1.77293">
        <ele>231</ele>
        <time>2025-02-18T14:18:44Z</time>
      </trkpt>
      <trkpt lat="43.61189" lon="1.77295">
        <ele>231</ele>
        <time>2025-02-18T14:18:45Z</time>
      </trkpt>
      <trkpt lat="43.61196" lon="1.77298">
        <ele>231</ele>
        <time>2025-02-18T14:18:47Z</time>
      </trkpt>
      <trkpt lat="43.61203" lon="1.77303">
        <ele>231</ele>
        <time>2025-02-18T14:18:48Z</time>
      </trkpt>
      <trkpt lat="43.61214" lon="1.77314">
        <ele>232</ele>
        <time>2025-02-18T14:18:50Z</time>
      </trkpt>
      <trkpt lat="43.6122" lon="1.77321">
        <ele>232</ele>
        <time>2025-02-18T14:18:52Z</time>
      </trkpt>
      <trkpt lat="43.61224" lon="1.77331">
        <ele>232</ele>
        <time>2025-02-18T14:18:53Z</time>
      </trkpt>
      <trkpt lat="43.61229" lon="1.77348">
        <ele>233</ele>
        <time>2025-02-18T14:18:56Z</time>
      </trkpt>
      <trkpt lat="43.61227" lon="1.7735">
        <ele>233</ele>
        <time>2025-02-18T14:18:56Z</time>
      </trkpt>
      <trkpt lat="43.61223" lon="1.77356">
        <ele>233</ele>
        <time>2025-02-18T14:18:57Z</time>
      </trkpt>
      <trkpt lat="43.61218" lon="1.77365">
        <ele>233</ele>
        <time>2025-02-18T14:18:59Z</time>
      </trkpt>
      <trkpt lat="43.61223" lon="1.77356">
        <ele>233</ele>
        <time>2025-02-18T14:19:00Z</time>
      </trkpt>
      <trkpt lat="43.61227" lon="1.7735">
        <ele>233</ele>
        <time>2025-02-18T14:19:01Z</time>
      </trkpt>
      <trkpt lat="43.61229" lon="1.77348">
        <ele>233</ele>
        <time>2025-02-18T14:19:02Z</time>
      </trkpt>
      <trkpt lat="43.61239" lon="1.77395">
        <ele>235</ele>
        <time>2025-02-18T14:19:08Z</time>
      </trkpt>
      <trkpt lat="43.61243" lon="1.77412">
        <ele>236</ele>
        <time>2025-02-18T14:19:10Z</time>
      </trkpt>
      <trkpt lat="43.61248" lon="1.77427">
        <ele>236</ele>
        <time>2025-02-18T14:19:12Z</time>
      </trkpt>
      <trkpt lat="43.6126" lon="1.7745">
        <ele>236</ele>
        <time>2025-02-18T14:19:16Z</time>
      </trkpt>
      <trkpt lat="43.61266" lon="1.7746">
        <ele>236</ele>
        <time>2025-02-18T14:19:18Z</time>
      </trkpt>
      <trkpt lat="43.6128" lon="1.77475">
        <ele>236</ele>
        <time>2025-02-18T14:19:21Z</time>
      </trkpt>
      <trkpt lat="43.61299" lon="1.77488">
        <ele>236</ele>
        <time>2025-02-18T14:19:25Z</time>
      </trkpt>
      <trkpt lat="43.6131" lon="1.77494">
        <ele>236</ele>
        <time>2025-02-18T14:19:27Z</time>
      </trkpt>
      <trkpt lat="43.61391" lon="1.77526">
        <ele>236</ele>
        <time>2025-02-18T14:19:42Z</time>
      </trkpt>
      <trkpt lat="43.61416" lon="1.77538">
        <ele>237</ele>
        <time>2025-02-18T14:19:46Z</time>
      </trkpt>
      <trkpt lat="43.61431" lon="1.77547">
        <ele>238</ele>
        <time>2025-02-18T14:19:49Z</time>
      </trkpt>
      <trkpt lat="43.61446" lon="1.77558">
        <ele>239</ele>
        <time>2025-02-18T14:19:52Z</time>
      </trkpt>
      <trkpt lat="43.61497" lon="1.776">
        <ele>240</ele>
        <time>2025-02-18T14:20:03Z</time>
      </trkpt>
      <trkpt lat="43.61532" lon="1.77621">
        <ele>240</ele>
        <time>2025-02-18T14:20:10Z</time>
      </trkpt>
      <trkpt lat="43.61641" lon="1.77674">
        <ele>244</ele>
        <time>2025-02-18T14:20:30Z</time>
      </trkpt>
      <trkpt lat="43.61665" lon="1.77687">
        <ele>245</ele>
        <time>2025-02-18T14:20:35Z</time>
      </trkpt>
      <trkpt lat="43.61684" lon="1.77702">
        <ele>245</ele>
        <time>2025-02-18T14:20:39Z</time>
      </trkpt>
      <trkpt lat="43.61692" lon="1.7771">
        <ele>245</ele>
        <time>2025-02-18T14:20:41Z</time>
      </trkpt>
      <trkpt lat="43.617" lon="1.77721">
        <ele>245</ele>
        <time>2025-02-18T14:20:43Z</time>
      </trkpt>
      <trkpt lat="43.61708" lon="1.77733">
        <ele>245</ele>
        <time>2025-02-18T14:20:45Z</time>
      </trkpt>
      <trkpt lat="43.61715" lon="1.77747">
        <ele>246</ele>
        <time>2025-02-18T14:20:47Z</time>
      </trkpt>
      <trkpt lat="43.61721" lon="1.77759">
        <ele>246</ele>
        <time>2025-02-18T14:20:49Z</time>
      </trkpt>
      <trkpt lat="43.61729" lon="1.77782">
        <ele>247</ele>
        <time>2025-02-18T14:20:52Z</time>
      </trkpt>
      <trkpt lat="43.61732" lon="1.77795">
        <ele>248</ele>
        <time>2025-02-18T14:20:54Z</time>
      </trkpt>
      <trkpt lat="43.61734" lon="1.77818">
        <ele>248</ele>
        <time>2025-02-18T14:20:57Z</time>
      </trkpt>
      <trkpt lat="43.61735" lon="1.77831">
        <ele>249</ele>
        <time>2025-02-18T14:20:58Z</time>
      </trkpt>
      <trkpt lat="43.61735" lon="1.77902">
        <ele>251</ele>
        <time>2025-02-18T14:21:08Z</time>
      </trkpt>
      <trkpt lat="43.61734" lon="1.78059">
        <ele>255</ele>
        <time>2025-02-18T14:21:28Z</time>
      </trkpt>
      <trkpt lat="43.61735" lon="1.78081">
        <ele>255</ele>
        <time>2025-02-18T14:21:31Z</time>
      </trkpt>
      <trkpt lat="43.61736" lon="1.78092">
        <ele>255</ele>
        <time>2025-02-18T14:21:32Z</time>
      </trkpt>
      <trkpt lat="43.61738" lon="1.78102">
        <ele>255</ele>
        <time>2025-02-18T14:21:33Z</time>
      </trkpt>
      <trkpt lat="43.61742" lon="1.78112">
        <ele>255</ele>
        <time>2025-02-18T14:21:35Z</time>
      </trkpt>
      <trkpt lat="43.61749" lon="1.78127">
        <ele>255</ele>
        <time>2025-02-18T14:21:37Z</time>
      </trkpt>
      <trkpt lat="43.61754" lon="1.78136">
        <ele>255</ele>
        <time>2025-02-18T14:21:39Z</time>
      </trkpt>
      <trkpt lat="43.61761" lon="1.78145">
        <ele>255</ele>
        <time>2025-02-18T14:21:40Z</time>
      </trkpt>
      <trkpt lat="43.61772" lon="1.78156">
        <ele>256</ele>
        <time>2025-02-18T14:21:43Z</time>
      </trkpt>
      <trkpt lat="43.61916" lon="1.7828">
        <ele>250</ele>
        <time>2025-02-18T14:22:13Z</time>
      </trkpt>
      <trkpt lat="43.61928" lon="1.78289">
        <ele>250</ele>
        <time>2025-02-18T14:22:15Z</time>
      </trkpt>
      <trkpt lat="43.61943" lon="1.78296">
        <ele>251</ele>
        <time>2025-02-18T14:22:18Z</time>
      </trkpt>
      <trkpt lat="43.61957" lon="1.783">
        <ele>251</ele>
        <time>2025-02-18T14:22:21Z</time>
      </trkpt>
      <trkpt lat="43.61973" lon="1.78299">
        <ele>251</ele>
        <time>2025-02-18T14:22:24Z</time>
      </trkpt>
      <trkpt lat="43.61988" lon="1.78295">
        <ele>251</ele>
        <time>2025-02-18T14:22:26Z</time>
      </trkpt>
      <trkpt lat="43.62003" lon="1.78287">
        <ele>250</ele>
        <time>2025-02-18T14:22:29Z</time>
      </trkpt>
      <trkpt lat="43.62012" lon="1.7828">
        <ele>250</ele>
        <time>2025-02-18T14:22:31Z</time>
      </trkpt>
      <trkpt lat="43.62036" lon="1.78258">
        <ele>250</ele>
        <time>2025-02-18T14:22:36Z</time>
      </trkpt>
      <trkpt lat="43.62114" lon="1.78179">
        <ele>249</ele>
        <time>2025-02-18T14:22:53Z</time>
      </trkpt>
      <trkpt lat="43.62132" lon="1.78163">
        <ele>249</ele>
        <time>2025-02-18T14:22:57Z</time>
      </trkpt>
      <trkpt lat="43.62149" lon="1.78152">
        <ele>249</ele>
        <time>2025-02-18T14:23:00Z</time>
      </trkpt>
      <trkpt lat="43.62158" lon="1.78148">
        <ele>249</ele>
        <time>2025-02-18T14:23:02Z</time>
      </trkpt>
      <trkpt lat="43.62169" lon="1.78143">
        <ele>249</ele>
        <time>2025-02-18T14:23:04Z</time>
      </trkpt>
      <trkpt lat="43.62189" lon="1.78138">
        <ele>249</ele>
        <time>2025-02-18T14:23:08Z</time>
      </trkpt>
      <trkpt lat="43.62208" lon="1.78137">
        <ele>250</ele>
        <time>2025-02-18T14:23:11Z</time>
      </trkpt>
      <trkpt lat="43.62226" lon="1.7814">
        <ele>250</ele>
        <time>2025-02-18T14:23:14Z</time>
      </trkpt>
      <trkpt lat="43.62235" lon="1.78143">
        <ele>250</ele>
        <time>2025-02-18T14:23:16Z</time>
      </trkpt>
      <trkpt lat="43.6225" lon="1.78151">
        <ele>251</ele>
        <time>2025-02-18T14:23:19Z</time>
      </trkpt>
      <trkpt lat="43.62271" lon="1.78167">
        <ele>252</ele>
        <time>2025-02-18T14:23:23Z</time>
      </trkpt>
      <trkpt lat="43.62338" lon="1.78226">
        <ele>254</ele>
        <time>2025-02-18T14:23:37Z</time>
      </trkpt>
      <trkpt lat="43.62369" lon="1.78254">
        <ele>253</ele>
        <time>2025-02-18T14:23:44Z</time>
      </trkpt>
      <trkpt lat="43.6239" lon="1.78275">
        <ele>251</ele>
        <time>2025-02-18T14:23:49Z</time>
      </trkpt>
      <trkpt lat="43.62406" lon="1.78295">
        <ele>250</ele>
        <time>2025-02-18T14:23:52Z</time>
      </trkpt>
      <trkpt lat="43.62422" lon="1.78318">
        <ele>248</ele>
        <time>2025-02-18T14:23:56Z</time>
      </trkpt>
      <trkpt lat="43.62461" lon="1.78382">
        <ele>249</ele>
        <time>2025-02-18T14:24:07Z</time>
      </trkpt>
      <trkpt lat="43.62471" lon="1.78397">
        <ele>250</ele>
        <time>2025-02-18T14:24:10Z</time>
      </trkpt>
      <trkpt lat="43.62485" lon="1.78414">
        <ele>251</ele>
        <time>2025-02-18T14:24:13Z</time>
      </trkpt>
      <trkpt lat="43.62508" lon="1.78437">
        <ele>253</ele>
        <time>2025-02-18T14:24:18Z</time>
      </trkpt>
      <trkpt lat="43.62688" lon="1.78615">
        <ele>250</ele>
        <time>2025-02-18T14:24:58Z</time>
      </trkpt>
      <trkpt lat="43.627" lon="1.78625">
        <ele>250</ele>
        <time>2025-02-18T14:25:00Z</time>
      </trkpt>
      <trkpt lat="43.62721" lon="1.78639">
        <ele>250</ele>
        <time>2025-02-18T14:25:04Z</time>
      </trkpt>
      <trkpt lat="43.62731" lon="1.78645">
        <ele>251</ele>
        <time>2025-02-18T14:25:06Z</time>
      </trkpt>
      <trkpt lat="43.6276" lon="1.78656">
        <ele>251</ele>
        <time>2025-02-18T14:25:12Z</time>
      </trkpt>
      <trkpt lat="43.62788" lon="1.78663">
        <ele>252</ele>
        <time>2025-02-18T14:25:17Z</time>
      </trkpt>
      <trkpt lat="43.62842" lon="1.7867">
        <ele>254</ele>
        <time>2025-02-18T14:25:26Z</time>
      </trkpt>
      <trkpt lat="43.62861" lon="1.78675">
        <ele>256</ele>
        <time>2025-02-18T14:25:30Z</time>
      </trkpt>
      <trkpt lat="43.62864" lon="1.78676">
        <ele>256</ele>
        <time>2025-02-18T14:25:30Z</time>
      </trkpt>
      <trkpt lat="43.62925" lon="1.78468">
        <ele>255</ele>
        <time>2025-02-18T14:25:59Z</time>
      </trkpt>
      <trkpt lat="43.62945" lon="1.78404">
        <ele>256</ele>
        <time>2025-02-18T14:26:08Z</time>
      </trkpt>
      <trkpt lat="43.62966" lon="1.78341">
        <ele>257</ele>
        <time>2025-02-18T14:26:17Z</time>
      </trkpt>
      <trkpt lat="43.6303" lon="1.78166">
        <ele>260</ele>
        <time>2025-02-18T14:26:42Z</time>
      </trkpt>
      <trkpt lat="43.63056" lon="1.78101">
        <ele>262</ele>
        <time>2025-02-18T14:26:52Z</time>
      </trkpt>
      <trkpt lat="43.63081" lon="1.78042">
        <ele>264</ele>
        <time>2025-02-18T14:27:01Z</time>
      </trkpt>
      <trkpt lat="43.631" lon="1.78006">
        <ele>265</ele>
        <time>2025-02-18T14:27:06Z</time>
      </trkpt>
      <trkpt lat="43.63117" lon="1.77979">
        <ele>264</ele>
        <time>2025-02-18T14:27:11Z</time>
      </trkpt>
      <trkpt lat="43.63128" lon="1.77965">
        <ele>263</ele>
        <time>2025-02-18T14:27:14Z</time>
      </trkpt>
      <trkpt lat="43.63182" lon="1.7791">
        <ele>261</ele>
        <time>2025-02-18T14:27:26Z</time>
      </trkpt>
      <trkpt lat="43.63226" lon="1.7786">
        <ele>260</ele>
        <time>2025-02-18T14:27:36Z</time>
      </trkpt>
      <trkpt lat="43.63259" lon="1.77806">
        <ele>260</ele>
        <time>2025-02-18T14:27:45Z</time>
      </trkpt>
      <trkpt lat="43.63286" lon="1.77757">
        <ele>258</ele>
        <time>2025-02-18T14:27:53Z</time>
      </trkpt>
      <trkpt lat="43.63302" lon="1.77717">
        <ele>258</ele>
        <time>2025-02-18T14:27:59Z</time>
      </trkpt>
      <trkpt lat="43.63312" lon="1.77682">
        <ele>258</ele>
        <time>2025-02-18T14:28:04Z</time>
      </trkpt>
      <trkpt lat="43.63325" lon="1.77626">
        <ele>257</ele>
        <time>2025-02-18T14:28:11Z</time>
      </trkpt>
      <trkpt lat="43.63334" lon="1.77567">
        <ele>256</ele>
        <time>2025-02-18T14:28:19Z</time>
      </trkpt>
      <trkpt lat="43.63338" lon="1.77554">
        <ele>255</ele>
        <time>2025-02-18T14:28:21Z</time>
      </trkpt>
      <trkpt lat="43.63336" lon="1.77547">
        <ele>255</ele>
        <time>2025-02-18T14:28:22Z</time>
      </trkpt>
      <trkpt lat="43.63337" lon="1.77433">
        <ele>250</ele>
        <time>2025-02-18T14:28:36Z</time>
      </trkpt>
      <trkpt lat="43.63336" lon="1.77387">
        <ele>252</ele>
        <time>2025-02-18T14:28:42Z</time>
      </trkpt>
      <trkpt lat="43.63307" lon="1.77288">
        <ele>251</ele>
        <time>2025-02-18T14:28:56Z</time>
      </trkpt>
      <trkpt lat="43.63301" lon="1.77267">
        <ele>250</ele>
        <time>2025-02-18T14:28:59Z</time>
      </trkpt>
      <trkpt lat="43.63295" lon="1.77157">
        <ele>248</ele>
        <time>2025-02-18T14:29:13Z</time>
      </trkpt>
      <trkpt lat="43.6328" lon="1.77108">
        <ele>247</ele>
        <time>2025-02-18T14:29:20Z</time>
      </trkpt>
      <trkpt lat="43.63249" lon="1.77048">
        <ele>245</ele>
        <time>2025-02-18T14:29:30Z</time>
      </trkpt>
      <trkpt lat="43.63224" lon="1.77015">
        <ele>246</ele>
        <time>2025-02-18T14:29:36Z</time>
      </trkpt>
      <trkpt lat="43.63179" lon="1.76904">
        <ele>245</ele>
        <time>2025-02-18T14:29:52Z</time>
      </trkpt>
      <trkpt lat="43.63152" lon="1.76815">
        <ele>246</ele>
        <time>2025-02-18T14:30:04Z</time>
      </trkpt>
      <trkpt lat="43.63135" lon="1.76751">
        <ele>250</ele>
        <time>2025-02-18T14:30:13Z</time>
      </trkpt>
      <trkpt lat="43.63131" lon="1.76731">
        <ele>249</ele>
        <time>2025-02-18T14:30:16Z</time>
      </trkpt>
      <trkpt lat="43.63129" lon="1.76702">
        <ele>249</ele>
        <time>2025-02-18T14:30:20Z</time>
      </trkpt>
      <trkpt lat="43.63137" lon="1.76637">
        <ele>250</ele>
        <time>2025-02-18T14:30:28Z</time>
      </trkpt>
      <trkpt lat="43.63146" lon="1.76581">
        <ele>249</ele>
        <time>2025-02-18T14:30:36Z</time>
      </trkpt>
      <trkpt lat="43.63159" lon="1.76533">
        <ele>247</ele>
        <time>2025-02-18T14:30:42Z</time>
      </trkpt>
      <trkpt lat="43.63162" lon="1.76518">
        <ele>246</ele>
        <time>2025-02-18T14:30:44Z</time>
      </trkpt>
      <trkpt lat="43.63163" lon="1.76486">
        <ele>244</ele>
        <time>2025-02-18T14:30:48Z</time>
      </trkpt>
      <trkpt lat="43.63156" lon="1.76394">
        <ele>238</ele>
        <time>2025-02-18T14:31:00Z</time>
      </trkpt>
      <trkpt lat="43.63143" lon="1.76295">
        <ele>234</ele>
        <time>2025-02-18T14:31:13Z</time>
      </trkpt>
      <trkpt lat="43.63122" lon="1.7616">
        <ele>229</ele>
        <time>2025-02-18T14:31:31Z</time>
      </trkpt>
      <trkpt lat="43.63113" lon="1.76116">
        <ele>228</ele>
        <time>2025-02-18T14:31:37Z</time>
      </trkpt>
      <trkpt lat="43.63103" lon="1.76074">
        <ele>227</ele>
        <time>2025-02-18T14:31:43Z</time>
      </trkpt>
      <trkpt lat="43.63077" lon="1.75963">
        <ele>229</ele>
        <time>2025-02-18T14:31:58Z</time>
      </trkpt>
      <trkpt lat="43.63068" lon="1.75934">
        <ele>230</ele>
        <time>2025-02-18T14:32:02Z</time>
      </trkpt>
      <trkpt lat="43.63054" lon="1.75911">
        <ele>232</ele>
        <time>2025-02-18T14:32:05Z</time>
      </trkpt>
      <trkpt lat="43.63037" lon="1.75892">
        <ele>233</ele>
        <time>2025-02-18T14:32:09Z</time>
      </trkpt>
      <trkpt lat="43.62994" lon="1.75863">
        <ele>237</ele>
        <time>2025-02-18T14:32:18Z</time>
      </trkpt>
      <trkpt lat="43.62977" lon="1.75851">
        <ele>237</ele>
        <time>2025-02-18T14:32:21Z</time>
      </trkpt>
      <trkpt lat="43.62965" lon="1.75837">
        <ele>237</ele>
        <time>2025-02-18T14:32:24Z</time>
      </trkpt>
      <trkpt lat="43.62889" lon="1.75709">
        <ele>239</ele>
        <time>2025-02-18T14:32:45Z</time>
      </trkpt>
      <trkpt lat="43.62863" lon="1.75665">
        <ele>238</ele>
        <time>2025-02-18T14:32:53Z</time>
      </trkpt>
      <trkpt lat="43.62815" lon="1.75565">
        <ele>238</ele>
        <time>2025-02-18T14:33:08Z</time>
      </trkpt>
      <trkpt lat="43.62796" lon="1.75507">
        <ele>242</ele>
        <time>2025-02-18T14:33:16Z</time>
      </trkpt>
      <trkpt lat="43.62779" lon="1.75442">
        <ele>243</ele>
        <time>2025-02-18T14:33:25Z</time>
      </trkpt>
      <trkpt lat="43.62775" lon="1.7542">
        <ele>243</ele>
        <time>2025-02-18T14:33:28Z</time>
      </trkpt>
      <trkpt lat="43.62773" lon="1.75397">
        <ele>243</ele>
        <time>2025-02-18T14:33:31Z</time>
      </trkpt>
      <trkpt lat="43.62773" lon="1.7539">
        <ele>243</ele>
        <time>2025-02-18T14:33:32Z</time>
      </trkpt>
      <trkpt lat="43.62775" lon="1.75378">
        <ele>243</ele>
        <time>2025-02-18T14:33:34Z</time>
      </trkpt>
      <trkpt lat="43.62777" lon="1.75362">
        <ele>243</ele>
        <time>2025-02-18T14:33:36Z</time>
      </trkpt>
      <trkpt lat="43.62795" lon="1.75291">
        <ele>242</ele>
        <time>2025-02-18T14:33:45Z</time>
      </trkpt>
      <trkpt lat="43.62795" lon="1.75285">
        <ele>241</ele>
        <time>2025-02-18T14:33:46Z</time>
      </trkpt>
      <trkpt lat="43.62796" lon="1.75276">
        <ele>241</ele>
        <time>2025-02-18T14:33:47Z</time>
      </trkpt>
      <trkpt lat="43.62794" lon="1.7527">
        <ele>241</ele>
        <time>2025-02-18T14:33:48Z</time>
      </trkpt>
      <trkpt lat="43.62791" lon="1.75264">
        <ele>240</ele>
        <time>2025-02-18T14:33:49Z</time>
      </trkpt>
      <trkpt lat="43.62785" lon="1.75258">
        <ele>240</ele>
        <time>2025-02-18T14:33:50Z</time>
      </trkpt>
      <trkpt lat="43.62664" lon="1.75201">
        <ele>240</ele>
        <time>2025-02-18T14:34:13Z</time>
      </trkpt>
      <trkpt lat="43.62641" lon="1.75185">
        <ele>242</ele>
        <time>2025-02-18T14:34:18Z</time>
      </trkpt>
      <trkpt lat="43.62607" lon="1.75162">
        <ele>244</ele>
        <time>2025-02-18T14:34:25Z</time>
      </trkpt>
      <trkpt lat="43.62586" lon="1.75153">
        <ele>245</ele>
        <time>2025-02-18T14:34:28Z</time>
      </trkpt>
      <trkpt lat="43.62575" lon="1.75151">
        <ele>245</ele>
        <time>2025-02-18T14:34:30Z</time>
      </trkpt>
      <trkpt lat="43.62558" lon="1.7515">
        <ele>247</ele>
        <time>2025-02-18T14:34:33Z</time>
      </trkpt>
      <trkpt lat="43.62521" lon="1.75147">
        <ele>249</ele>
        <time>2025-02-18T14:34:40Z</time>
      </trkpt>
      <trkpt lat="43.62492" lon="1.75143">
        <ele>250</ele>
        <time>2025-02-18T14:34:45Z</time>
      </trkpt>
      <trkpt lat="43.62493" lon="1.75133">
        <ele>250</ele>
        <time>2025-02-18T14:34:47Z</time>
      </trkpt>
      <trkpt lat="43.625" lon="1.75111">
        <ele>250</ele>
        <time>2025-02-18T14:34:50Z</time>
      </trkpt>
      <trkpt lat="43.62526" lon="1.75027">
        <ele>246</ele>
        <time>2025-02-18T14:35:01Z</time>
      </trkpt>
      <trkpt lat="43.62535" lon="1.74992">
        <ele>245</ele>
        <time>2025-02-18T14:35:06Z</time>
      </trkpt>
      <trkpt lat="43.62546" lon="1.74943">
        <ele>245</ele>
        <time>2025-02-18T14:35:13Z</time>
      </trkpt>
      <trkpt lat="43.62551" lon="1.74912">
        <ele>245</ele>
        <time>2025-02-18T14:35:17Z</time>
      </trkpt>
      <trkpt lat="43.62559" lon="1.7486">
        <ele>247</ele>
        <time>2025-02-18T14:35:24Z</time>
      </trkpt>
      <trkpt lat="43.62569" lon="1.74786">
        <ele>248</ele>
        <time>2025-02-18T14:35:33Z</time>
      </trkpt>
      <trkpt lat="43.62572" lon="1.74773">
        <ele>248</ele>
        <time>2025-02-18T14:35:35Z</time>
      </trkpt>
      <trkpt lat="43.62575" lon="1.74758">
        <ele>248</ele>
        <time>2025-02-18T14:35:37Z</time>
      </trkpt>
      <trkpt lat="43.6259" lon="1.74715">
        <ele>250</ele>
        <time>2025-02-18T14:35:43Z</time>
      </trkpt>
      <trkpt lat="43.62594" lon="1.74699">
        <ele>250</ele>
        <time>2025-02-18T14:35:46Z</time>
      </trkpt>
      <trkpt lat="43.62596" lon="1.74674">
        <ele>251</ele>
        <time>2025-02-18T14:35:49Z</time>
      </trkpt>
      <trkpt lat="43.62594" lon="1.74604">
        <ele>250</ele>
        <time>2025-02-18T14:35:58Z</time>
      </trkpt>
      <trkpt lat="43.62595" lon="1.74579">
        <ele>250</ele>
        <time>2025-02-18T14:36:01Z</time>
      </trkpt>
      <trkpt lat="43.62596" lon="1.74545">
        <ele>250</ele>
        <time>2025-02-18T14:36:05Z</time>
      </trkpt>
      <trkpt lat="43.62598" lon="1.745">
        <ele>251</ele>
        <time>2025-02-18T14:36:11Z</time>
      </trkpt>
      <trkpt lat="43.62604" lon="1.74419">
        <ele>251</ele>
        <time>2025-02-18T14:36:22Z</time>
      </trkpt>
      <trkpt lat="43.6261" lon="1.74349">
        <ele>248</ele>
        <time>2025-02-18T14:36:31Z</time>
      </trkpt>
      <trkpt lat="43.62611" lon="1.74336">
        <ele>248</ele>
        <time>2025-02-18T14:36:32Z</time>
      </trkpt>
      <trkpt lat="43.62617" lon="1.74306">
        <ele>248</ele>
        <time>2025-02-18T14:36:36Z</time>
      </trkpt>
      <trkpt lat="43.62623" lon="1.7427">
        <ele>248</ele>
        <time>2025-02-18T14:36:41Z</time>
      </trkpt>
      <trkpt lat="43.6263" lon="1.7422">
        <ele>247</ele>
        <time>2025-02-18T14:36:48Z</time>
      </trkpt>
      <trkpt lat="43.62637" lon="1.74187">
        <ele>247</ele>
        <time>2025-02-18T14:36:52Z</time>
      </trkpt>
      <trkpt lat="43.6264" lon="1.74177">
        <ele>247</ele>
        <time>2025-02-18T14:36:54Z</time>
      </trkpt>
      <trkpt lat="43.62669" lon="1.74095">
        <ele>247</ele>
        <time>2025-02-18T14:37:05Z</time>
      </trkpt>
      <trkpt lat="43.62675" lon="1.74075">
        <ele>246</ele>
        <time>2025-02-18T14:37:08Z</time>
      </trkpt>
      <trkpt lat="43.62676" lon="1.74066">
        <ele>245</ele>
        <time>2025-02-18T14:37:09Z</time>
      </trkpt>
      <trkpt lat="43.62677" lon="1.74049">
        <ele>245</ele>
        <time>2025-02-18T14:37:12Z</time>
      </trkpt>
      <trkpt lat="43.62677" lon="1.7404">
        <ele>244</ele>
        <time>2025-02-18T14:37:13Z</time>
      </trkpt>
      <trkpt lat="43.62669" lon="1.73986">
        <ele>242</ele>
        <time>2025-02-18T14:37:20Z</time>
      </trkpt>
      <trkpt lat="43.62663" lon="1.73935">
        <ele>238</ele>
        <time>2025-02-18T14:37:26Z</time>
      </trkpt>
      <trkpt lat="43.62656" lon="1.73831">
        <ele>230</ele>
        <time>2025-02-18T14:37:40Z</time>
      </trkpt>
      <trkpt lat="43.62655" lon="1.73802">
        <ele>230</ele>
        <time>2025-02-18T14:37:44Z</time>
      </trkpt>
      <trkpt lat="43.62656" lon="1.73773">
        <ele>229</ele>
        <time>2025-02-18T14:37:47Z</time>
      </trkpt>
      <trkpt lat="43.62658" lon="1.73756">
        <ele>229</ele>
        <time>2025-02-18T14:37:50Z</time>
      </trkpt>
      <trkpt lat="43.62672" lon="1.73654">
        <ele>230</ele>
        <time>2025-02-18T14:38:03Z</time>
      </trkpt>
      <trkpt lat="43.62706" lon="1.7344">
        <ele>230</ele>
        <time>2025-02-18T14:38:31Z</time>
      </trkpt>
      <trkpt lat="43.6272" lon="1.73356">
        <ele>230</ele>
        <time>2025-02-18T14:38:42Z</time>
      </trkpt>
      <trkpt lat="43.62726" lon="1.73315">
        <ele>230</ele>
        <time>2025-02-18T14:38:48Z</time>
      </trkpt>
      <trkpt lat="43.62731" lon="1.73278">
        <ele>231</ele>
        <time>2025-02-18T14:38:53Z</time>
      </trkpt>
      <trkpt lat="43.62734" lon="1.73256">
        <ele>231</ele>
        <time>2025-02-18T14:38:55Z</time>
      </trkpt>
      <trkpt lat="43.62735" lon="1.73237">
        <ele>231</ele>
        <time>2025-02-18T14:38:58Z</time>
      </trkpt>
      <trkpt lat="43.62734" lon="1.73195">
        <ele>229</ele>
        <time>2025-02-18T14:39:03Z</time>
      </trkpt>
      <trkpt lat="43.62733" lon="1.73157">
        <ele>228</ele>
        <time>2025-02-18T14:39:08Z</time>
      </trkpt>
      <trkpt lat="43.62731" lon="1.73135">
        <ele>227</ele>
        <time>2025-02-18T14:39:11Z</time>
      </trkpt>
      <trkpt lat="43.62729" lon="1.73126">
        <ele>226</ele>
        <time>2025-02-18T14:39:12Z</time>
      </trkpt>
      <trkpt lat="43.62725" lon="1.73121">
        <ele>226</ele>
        <time>2025-02-18T14:39:13Z</time>
      </trkpt>
      <trkpt lat="43.62721" lon="1.73117">
        <ele>226</ele>
        <time>2025-02-18T14:39:14Z</time>
      </trkpt>
      <trkpt lat="43.62706" lon="1.73108">
        <ele>225</ele>
        <time>2025-02-18T14:39:17Z</time>
      </trkpt>
      <trkpt lat="43.62687" lon="1.731">
        <ele>224</ele>
        <time>2025-02-18T14:39:20Z</time>
      </trkpt>
      <trkpt lat="43.62685" lon="1.73097">
        <ele>224</ele>
        <time>2025-02-18T14:39:21Z</time>
      </trkpt>
      <trkpt lat="43.62683" lon="1.73094">
        <ele>224</ele>
        <time>2025-02-18T14:39:22Z</time>
      </trkpt>
      <trkpt lat="43.62683" lon="1.73089">
        <ele>224</ele>
        <time>2025-02-18T14:39:22Z</time>
      </trkpt>
      <trkpt lat="43.62684" lon="1.73071">
        <ele>223</ele>
        <time>2025-02-18T14:39:25Z</time>
      </trkpt>
      <trkpt lat="43.62687" lon="1.73055">
        <ele>222</ele>
        <time>2025-02-18T14:39:27Z</time>
      </trkpt>
      <trkpt lat="43.62705" lon="1.72979">
        <ele>220</ele>
        <time>2025-02-18T14:39:37Z</time>
      </trkpt>
      <trkpt lat="43.62701" lon="1.72978">
        <ele>220</ele>
        <time>2025-02-18T14:39:38Z</time>
      </trkpt>
      <trkpt lat="43.62704" lon="1.72903">
        <ele>220</ele>
        <time>2025-02-18T14:39:47Z</time>
      </trkpt>
      <trkpt lat="43.62709" lon="1.72854">
        <ele>221</ele>
        <time>2025-02-18T14:39:54Z</time>
      </trkpt>
      <trkpt lat="43.6272" lon="1.72761">
        <ele>222</ele>
        <time>2025-02-18T14:40:06Z</time>
      </trkpt>
      <trkpt lat="43.62723" lon="1.72742">
        <ele>222</ele>
        <time>2025-02-18T14:40:08Z</time>
      </trkpt>
      <trkpt lat="43.62728" lon="1.72725">
        <ele>222</ele>
        <time>2025-02-18T14:40:11Z</time>
      </trkpt>
      <trkpt lat="43.62745" lon="1.72686">
        <ele>222</ele>
        <time>2025-02-18T14:40:17Z</time>
      </trkpt>
      <trkpt lat="43.62754" lon="1.72663">
        <ele>222</ele>
        <time>2025-02-18T14:40:20Z</time>
      </trkpt>
      <trkpt lat="43.62767" lon="1.72616">
        <ele>221</ele>
        <time>2025-02-18T14:40:26Z</time>
      </trkpt>
      <trkpt lat="43.62784" lon="1.72563">
        <ele>219</ele>
        <time>2025-02-18T14:40:34Z</time>
      </trkpt>
      <trkpt lat="43.62807" lon="1.72505">
        <ele>217</ele>
        <time>2025-02-18T14:40:42Z</time>
      </trkpt>
      <trkpt lat="43.62811" lon="1.7249">
        <ele>217</ele>
        <time>2025-02-18T14:40:44Z</time>
      </trkpt>
      <trkpt lat="43.62813" lon="1.7248">
        <ele>216</ele>
        <time>2025-02-18T14:40:46Z</time>
      </trkpt>
      <trkpt lat="43.62814" lon="1.7247">
        <ele>216</ele>
        <time>2025-02-18T14:40:47Z</time>
      </trkpt>
      <trkpt lat="43.62813" lon="1.72435">
        <ele>214</ele>
        <time>2025-02-18T14:40:52Z</time>
      </trkpt>
      <trkpt lat="43.62814" lon="1.72412">
        <ele>213</ele>
        <time>2025-02-18T14:40:55Z</time>
      </trkpt>
      <trkpt lat="43.62821" lon="1.72363">
        <ele>210</ele>
        <time>2025-02-18T14:41:01Z</time>
      </trkpt>
      <trkpt lat="43.62824" lon="1.72339">
        <ele>209</ele>
        <time>2025-02-18T14:41:04Z</time>
      </trkpt>
      <trkpt lat="43.62834" lon="1.72218">
        <ele>203</ele>
        <time>2025-02-18T14:41:20Z</time>
      </trkpt>
      <trkpt lat="43.62835" lon="1.72198">
        <ele>201</ele>
        <time>2025-02-18T14:41:22Z</time>
      </trkpt>
      <trkpt lat="43.62835" lon="1.72176">
        <ele>200</ele>
        <time>2025-02-18T14:41:25Z</time>
      </trkpt>
      <trkpt lat="43.62834" lon="1.72163">
        <ele>199</ele>
        <time>2025-02-18T14:41:27Z</time>
      </trkpt>
      <trkpt lat="43.62826" lon="1.72103">
        <ele>194</ele>
        <time>2025-02-18T14:41:35Z</time>
      </trkpt>
      <trkpt lat="43.62824" lon="1.72059">
        <ele>191</ele>
        <time>2025-02-18T14:41:40Z</time>
      </trkpt>
      <trkpt lat="43.62824" lon="1.72006">
        <ele>189</ele>
        <time>2025-02-18T14:41:47Z</time>
      </trkpt>
      <trkpt lat="43.62826" lon="1.71948">
        <ele>187</ele>
        <time>2025-02-18T14:41:55Z</time>
      </trkpt>
      <trkpt lat="43.62831" lon="1.71888">
        <ele>185</ele>
        <time>2025-02-18T14:42:03Z</time>
      </trkpt>
      <trkpt lat="43.62839" lon="1.71835">
        <ele>184</ele>
        <time>2025-02-18T14:42:10Z</time>
      </trkpt>
      <trkpt lat="43.62847" lon="1.71791">
        <ele>183</ele>
        <time>2025-02-18T14:42:15Z</time>
      </trkpt>
      <trkpt lat="43.6285" lon="1.71765">
        <ele>182</ele>
        <time>2025-02-18T14:42:19Z</time>
      </trkpt>
      <trkpt lat="43.62856" lon="1.71675">
        <ele>181</ele>
        <time>2025-02-18T14:42:30Z</time>
      </trkpt>
      <trkpt lat="43.62863" lon="1.71615">
        <ele>181</ele>
        <time>2025-02-18T14:42:38Z</time>
      </trkpt>
      <trkpt lat="43.62862" lon="1.716">
        <ele>180</ele>
        <time>2025-02-18T14:42:40Z</time>
      </trkpt>
      <trkpt lat="43.6286" lon="1.71592">
        <ele>180</ele>
        <time>2025-02-18T14:42:41Z</time>
      </trkpt>
      <trkpt lat="43.62858" lon="1.71585">
        <ele>180</ele>
        <time>2025-02-18T14:42:42Z</time>
      </trkpt>
      <trkpt lat="43.62855" lon="1.71579">
        <ele>180</ele>
        <time>2025-02-18T14:42:43Z</time>
      </trkpt>
      <trkpt lat="43.6285" lon="1.71573">
        <ele>180</ele>
        <time>2025-02-18T14:42:44Z</time>
      </trkpt>
      <trkpt lat="43.62831" lon="1.71552">
        <ele>179</ele>
        <time>2025-02-18T14:42:49Z</time>
      </trkpt>
      <trkpt lat="43.62827" lon="1.71546">
        <ele>179</ele>
        <time>2025-02-18T14:42:50Z</time>
      </trkpt>
      <trkpt lat="43.62824" lon="1.71541">
        <ele>179</ele>
        <time>2025-02-18T14:42:51Z</time>
      </trkpt>
      <trkpt lat="43.62822" lon="1.7153">
        <ele>179</ele>
        <time>2025-02-18T14:42:52Z</time>
      </trkpt>
      <trkpt lat="43.62823" lon="1.71523">
        <ele>179</ele>
        <time>2025-02-18T14:42:53Z</time>
      </trkpt>
      <trkpt lat="43.62824" lon="1.71516">
        <ele>178</ele>
        <time>2025-02-18T14:42:54Z</time>
      </trkpt>
      <trkpt lat="43.62831" lon="1.71502">
        <ele>178</ele>
        <time>2025-02-18T14:42:56Z</time>
      </trkpt>
      <trkpt lat="43.62931" lon="1.71337">
        <ele>169</ele>
        <time>2025-02-18T14:43:24Z</time>
      </trkpt>
      <trkpt lat="43.62951" lon="1.713">
        <ele>168</ele>
        <time>2025-02-18T14:43:30Z</time>
      </trkpt>
      <trkpt lat="43.62955" lon="1.7129">
        <ele>167</ele>
        <time>2025-02-18T14:43:31Z</time>
      </trkpt>
      <trkpt lat="43.62962" lon="1.71268">
        <ele>166</ele>
        <time>2025-02-18T14:43:34Z</time>
      </trkpt>
      <trkpt lat="43.62973" lon="1.7123">
        <ele>165</ele>
        <time>2025-02-18T14:43:40Z</time>
      </trkpt>
      <trkpt lat="43.62976" lon="1.71219">
        <ele>166</ele>
        <time>2025-02-18T14:43:41Z</time>
      </trkpt>
      <trkpt lat="43.63011" lon="1.71087">
        <ele>174</ele>
        <time>2025-02-18T14:43:59Z</time>
      </trkpt>
      <trkpt lat="43.63025" lon="1.71035">
        <ele>178</ele>
        <time>2025-02-18T14:44:06Z</time>
      </trkpt>
      <trkpt lat="43.63033" lon="1.71013">
        <ele>179</ele>
        <time>2025-02-18T14:44:09Z</time>
      </trkpt>
      <trkpt lat="43.63077" lon="1.70923">
        <ele>184</ele>
        <time>2025-02-18T14:44:23Z</time>
      </trkpt>
      <trkpt lat="43.63103" lon="1.70871">
        <ele>186</ele>
        <time>2025-02-18T14:44:32Z</time>
      </trkpt>
      <trkpt lat="43.63141" lon="1.70784">
        <ele>189</ele>
        <time>2025-02-18T14:44:45Z</time>
      </trkpt>
      <trkpt lat="43.6316" lon="1.70738">
        <ele>190</ele>
        <time>2025-02-18T14:44:52Z</time>
      </trkpt>
      <trkpt lat="43.6319" lon="1.7065">
        <ele>191</ele>
        <time>2025-02-18T14:45:04Z</time>
      </trkpt>
      <trkpt lat="43.63237" lon="1.70503">
        <ele>194</ele>
        <time>2025-02-18T14:45:25Z</time>
      </trkpt>
      <trkpt lat="43.63249" lon="1.70468">
        <ele>195</ele>
        <time>2025-02-18T14:45:30Z</time>
      </trkpt>
      <trkpt lat="43.6326" lon="1.70442">
        <ele>195</ele>
        <time>2025-02-18T14:45:34Z</time>
      </trkpt>
      <trkpt lat="43.63308" lon="1.70352">
        <ele>197</ele>
        <time>2025-02-18T14:45:48Z</time>
      </trkpt>
      <trkpt lat="43.63311" lon="1.70346">
        <ele>197</ele>
        <time>2025-02-18T14:45:49Z</time>
      </trkpt>
      <trkpt lat="43.63316" lon="1.70342">
        <ele>198</ele>
        <time>2025-02-18T14:45:50Z</time>
      </trkpt>
      <trkpt lat="43.6332" lon="1.70339">
        <ele>198</ele>
        <time>2025-02-18T14:45:51Z</time>
      </trkpt>
      <trkpt lat="43.63328" lon="1.70336">
        <ele>199</ele>
        <time>2025-02-18T14:45:52Z</time>
      </trkpt>
      <trkpt lat="43.6333" lon="1.70344">
        <ele>199</ele>
        <time>2025-02-18T14:45:53Z</time>
      </trkpt>
      <trkpt lat="43.63333" lon="1.70352">
        <ele>199</ele>
        <time>2025-02-18T14:45:55Z</time>
      </trkpt>
      <trkpt lat="43.63358" lon="1.70404">
        <ele>201</ele>
        <time>2025-02-18T14:46:03Z</time>
      </trkpt>
      <trkpt lat="43.63393" lon="1.70484">
        <ele>204</ele>
        <time>2025-02-18T14:46:15Z</time>
      </trkpt>
      <trkpt lat="43.634" lon="1.70498">
        <ele>204</ele>
        <time>2025-02-18T14:46:17Z</time>
      </trkpt>
      <trkpt lat="43.63408" lon="1.70512">
        <ele>205</ele>
        <time>2025-02-18T14:46:19Z</time>
      </trkpt>
      <trkpt lat="43.63418" lon="1.70524">
        <ele>205</ele>
        <time>2025-02-18T14:46:21Z</time>
      </trkpt>
      <trkpt lat="43.63435" lon="1.7054">
        <ele>206</ele>
        <time>2025-02-18T14:46:25Z</time>
      </trkpt>
      <trkpt lat="43.63509" lon="1.7059">
        <ele>212</ele>
        <time>2025-02-18T14:46:40Z</time>
      </trkpt>
      <trkpt lat="43.63589" lon="1.70647">
        <ele>210</ele>
        <time>2025-02-18T14:46:56Z</time>
      </trkpt>
      <trkpt lat="43.63615" lon="1.70666">
        <ele>209</ele>
        <time>2025-02-18T14:47:01Z</time>
      </trkpt>
      <trkpt lat="43.63617" lon="1.70668">
        <ele>209</ele>
        <time>2025-02-18T14:47:01Z</time>
      </trkpt>
      <trkpt lat="43.63619" lon="1.70669">
        <ele>209</ele>
        <time>2025-02-18T14:47:02Z</time>
      </trkpt>
      <trkpt lat="43.63646" lon="1.70693">
        <ele>208</ele>
        <time>2025-02-18T14:47:08Z</time>
      </trkpt>
      <trkpt lat="43.63684" lon="1.70731">
        <ele>210</ele>
        <time>2025-02-18T14:47:16Z</time>
      </trkpt>
      <trkpt lat="43.63716" lon="1.70768">
        <ele>213</ele>
        <time>2025-02-18T14:47:23Z</time>
      </trkpt>
      <trkpt lat="43.63749" lon="1.70813">
        <ele>217</ele>
        <time>2025-02-18T14:47:32Z</time>
      </trkpt>
      <trkpt lat="43.63779" lon="1.70854">
        <ele>218</ele>
        <time>2025-02-18T14:47:39Z</time>
      </trkpt>
      <trkpt lat="43.63785" lon="1.70865">
        <ele>218</ele>
        <time>2025-02-18T14:47:41Z</time>
      </trkpt>
      <trkpt lat="43.63792" lon="1.70884">
        <ele>219</ele>
        <time>2025-02-18T14:47:44Z</time>
      </trkpt>
      <trkpt lat="43.63793" lon="1.70895">
        <ele>219</ele>
        <time>2025-02-18T14:47:45Z</time>
      </trkpt>
      <trkpt lat="43.63794" lon="1.70905">
        <ele>219</ele>
        <time>2025-02-18T14:47:46Z</time>
      </trkpt>
      <trkpt lat="43.63793" lon="1.70918">
        <ele>219</ele>
        <time>2025-02-18T14:47:48Z</time>
      </trkpt>
      <trkpt lat="43.6379" lon="1.70945">
        <ele>220</ele>
        <time>2025-02-18T14:47:52Z</time>
      </trkpt>
      <trkpt lat="43.63772" lon="1.71065">
        <ele>223</ele>
        <time>2025-02-18T14:48:07Z</time>
      </trkpt>
      <trkpt lat="43.63772" lon="1.71075">
        <ele>223</ele>
        <time>2025-02-18T14:48:09Z</time>
      </trkpt>
      <trkpt lat="43.63773" lon="1.71083">
        <ele>223</ele>
        <time>2025-02-18T14:48:10Z</time>
      </trkpt>
      <trkpt lat="43.63774" lon="1.71088">
        <ele>223</ele>
        <time>2025-02-18T14:48:10Z</time>
      </trkpt>
      <trkpt lat="43.63777" lon="1.71094">
        <ele>223</ele>
        <time>2025-02-18T14:48:11Z</time>
      </trkpt>
      <trkpt lat="43.63785" lon="1.71102">
        <ele>224</ele>
        <time>2025-02-18T14:48:13Z</time>
      </trkpt>
      <trkpt lat="43.63792" lon="1.71107">
        <ele>224</ele>
        <time>2025-02-18T14:48:14Z</time>
      </trkpt>
      <trkpt lat="43.63877" lon="1.71152">
        <ele>227</ele>
        <time>2025-02-18T14:48:31Z</time>
      </trkpt>
      <trkpt lat="43.63891" lon="1.71158">
        <ele>228</ele>
        <time>2025-02-18T14:48:33Z</time>
      </trkpt>
      <trkpt lat="43.63903" lon="1.71162">
        <ele>228</ele>
        <time>2025-02-18T14:48:35Z</time>
      </trkpt>
      <trkpt lat="43.63915" lon="1.71164">
        <ele>229</ele>
        <time>2025-02-18T14:48:38Z</time>
      </trkpt>
      <trkpt lat="43.63926" lon="1.71163">
        <ele>229</ele>
        <time>2025-02-18T14:48:39Z</time>
      </trkpt>
      <trkpt lat="43.63937" lon="1.71161">
        <ele>230</ele>
        <time>2025-02-18T14:48:41Z</time>
      </trkpt>
      <trkpt lat="43.63948" lon="1.71157">
        <ele>230</ele>
        <time>2025-02-18T14:48:43Z</time>
      </trkpt>
      <trkpt lat="43.63958" lon="1.71152">
        <ele>230</ele>
        <time>2025-02-18T14:48:45Z</time>
      </trkpt>
      <trkpt lat="43.63967" lon="1.71146">
        <ele>230</ele>
        <time>2025-02-18T14:48:47Z</time>
      </trkpt>
      <trkpt lat="43.63989" lon="1.71123">
        <ele>231</ele>
        <time>2025-02-18T14:48:52Z</time>
      </trkpt>
      <trkpt lat="43.63996" lon="1.71118">
        <ele>231</ele>
        <time>2025-02-18T14:48:53Z</time>
      </trkpt>
      <trkpt lat="43.64002" lon="1.71115">
        <ele>231</ele>
        <time>2025-02-18T14:48:55Z</time>
      </trkpt>
      <trkpt lat="43.64008" lon="1.71115">
        <ele>232</ele>
        <time>2025-02-18T14:48:56Z</time>
      </trkpt>
      <trkpt lat="43.64014" lon="1.71117">
        <ele>232</ele>
        <time>2025-02-18T14:48:57Z</time>
      </trkpt>
      <trkpt lat="43.64019" lon="1.7112">
        <ele>232</ele>
        <time>2025-02-18T14:48:58Z</time>
      </trkpt>
      <trkpt lat="43.64025" lon="1.71125">
        <ele>232</ele>
        <time>2025-02-18T14:48:59Z</time>
      </trkpt>
      <trkpt lat="43.64046" lon="1.71157">
        <ele>234</ele>
        <time>2025-02-18T14:49:05Z</time>
      </trkpt>
      <trkpt lat="43.64063" lon="1.71179">
        <ele>234</ele>
        <time>2025-02-18T14:49:09Z</time>
      </trkpt>
      <trkpt lat="43.64119" lon="1.71237">
        <ele>238</ele>
        <time>2025-02-18T14:49:21Z</time>
      </trkpt>
      <trkpt lat="43.64141" lon="1.71259">
        <ele>240</ele>
        <time>2025-02-18T14:49:26Z</time>
      </trkpt>
      <trkpt lat="43.64156" lon="1.7127">
        <ele>241</ele>
        <time>2025-02-18T14:49:29Z</time>
      </trkpt>
      <trkpt lat="43.64164" lon="1.71275">
        <ele>241</ele>
        <time>2025-02-18T14:49:31Z</time>
      </trkpt>
      <trkpt lat="43.64173" lon="1.71279">
        <ele>241</ele>
        <time>2025-02-18T14:49:32Z</time>
      </trkpt>
      <trkpt lat="43.64211" lon="1.71289">
        <ele>241</ele>
        <time>2025-02-18T14:49:39Z</time>
      </trkpt>
      <trkpt lat="43.64231" lon="1.71296">
        <ele>241</ele>
        <time>2025-02-18T14:49:43Z</time>
      </trkpt>
      <trkpt lat="43.64286" lon="1.71325">
        <ele>239</ele>
        <time>2025-02-18T14:49:53Z</time>
      </trkpt>
      <trkpt lat="43.64305" lon="1.71338">
        <ele>239</ele>
        <time>2025-02-18T14:49:57Z</time>
      </trkpt>
      <trkpt lat="43.64315" lon="1.71346">
        <ele>238</ele>
        <time>2025-02-18T14:49:59Z</time>
      </trkpt>
      <trkpt lat="43.64333" lon="1.71366">
        <ele>237</ele>
        <time>2025-02-18T14:50:03Z</time>
      </trkpt>
      <trkpt lat="43.64351" lon="1.71388">
        <ele>237</ele>
        <time>2025-02-18T14:50:07Z</time>
      </trkpt>
      <trkpt lat="43.6437" lon="1.71416">
        <ele>237</ele>
        <time>2025-02-18T14:50:12Z</time>
      </trkpt>
      <trkpt lat="43.64378" lon="1.71429">
        <ele>237</ele>
        <time>2025-02-18T14:50:15Z</time>
      </trkpt>
      <trkpt lat="43.64406" lon="1.71485">
        <ele>236</ele>
        <time>2025-02-18T14:50:23Z</time>
      </trkpt>
      <trkpt lat="43.64427" lon="1.71532">
        <ele>237</ele>
        <time>2025-02-18T14:50:31Z</time>
      </trkpt>
      <trkpt lat="43.64463" lon="1.7162">
        <ele>238</ele>
        <time>2025-02-18T14:50:44Z</time>
      </trkpt>
      <trkpt lat="43.64488" lon="1.71677">
        <ele>239</ele>
        <time>2025-02-18T14:50:52Z</time>
      </trkpt>
      <trkpt lat="43.64494" lon="1.71693">
        <ele>239</ele>
        <time>2025-02-18T14:50:54Z</time>
      </trkpt>
      <trkpt lat="43.64498" lon="1.71708">
        <ele>240</ele>
        <time>2025-02-18T14:50:56Z</time>
      </trkpt>
      <trkpt lat="43.64502" lon="1.71725">
        <ele>240</ele>
        <time>2025-02-18T14:50:59Z</time>
      </trkpt>
      <trkpt lat="43.64516" lon="1.71819">
        <ele>242</ele>
        <time>2025-02-18T14:51:11Z</time>
      </trkpt>
      <trkpt lat="43.64518" lon="1.71835">
        <ele>243</ele>
        <time>2025-02-18T14:51:13Z</time>
      </trkpt>
      <trkpt lat="43.6452" lon="1.71854">
        <ele>243</ele>
        <time>2025-02-18T14:51:16Z</time>
      </trkpt>
      <trkpt lat="43.6452" lon="1.71872">
        <ele>243</ele>
        <time>2025-02-18T14:51:18Z</time>
      </trkpt>
      <trkpt lat="43.64518" lon="1.71947">
        <ele>244</ele>
        <time>2025-02-18T14:51:28Z</time>
      </trkpt>
      <trkpt lat="43.64518" lon="1.71972">
        <ele>245</ele>
        <time>2025-02-18T14:51:31Z</time>
      </trkpt>
      <trkpt lat="43.64519" lon="1.7199">
        <ele>245</ele>
        <time>2025-02-18T14:51:33Z</time>
      </trkpt>
      <trkpt lat="43.64521" lon="1.72005">
        <ele>245</ele>
        <time>2025-02-18T14:51:35Z</time>
      </trkpt>
      <trkpt lat="43.64525" lon="1.72017">
        <ele>244</ele>
        <time>2025-02-18T14:51:37Z</time>
      </trkpt>
      <trkpt lat="43.64529" lon="1.72029">
        <ele>244</ele>
        <time>2025-02-18T14:51:39Z</time>
      </trkpt>
      <trkpt lat="43.64537" lon="1.72047">
        <ele>244</ele>
        <time>2025-02-18T14:51:41Z</time>
      </trkpt>
      <trkpt lat="43.64581" lon="1.72132">
        <ele>242</ele>
        <time>2025-02-18T14:51:55Z</time>
      </trkpt>
      <trkpt lat="43.64588" lon="1.7215">
        <ele>242</ele>
        <time>2025-02-18T14:51:57Z</time>
      </trkpt>
      <trkpt lat="43.64594" lon="1.72168">
        <ele>241</ele>
        <time>2025-02-18T14:52:00Z</time>
      </trkpt>
      <trkpt lat="43.64599" lon="1.72184">
        <ele>241</ele>
        <time>2025-02-18T14:52:02Z</time>
      </trkpt>
      <trkpt lat="43.64601" lon="1.72199">
        <ele>241</ele>
        <time>2025-02-18T14:52:04Z</time>
      </trkpt>
      <trkpt lat="43.64603" lon="1.72215">
        <ele>241</ele>
        <time>2025-02-18T14:52:06Z</time>
      </trkpt>
      <trkpt lat="43.64603" lon="1.7223">
        <ele>241</ele>
        <time>2025-02-18T14:52:08Z</time>
      </trkpt>
      <trkpt lat="43.64601" lon="1.72247">
        <ele>241</ele>
        <time>2025-02-18T14:52:10Z</time>
      </trkpt>
      <trkpt lat="43.64594" lon="1.72309">
        <ele>242</ele>
        <time>2025-02-18T14:52:18Z</time>
      </trkpt>
      <trkpt lat="43.64592" lon="1.72334">
        <ele>242</ele>
        <time>2025-02-18T14:52:22Z</time>
      </trkpt>
      <trkpt lat="43.64591" lon="1.72354">
        <ele>242</ele>
        <time>2025-02-18T14:52:24Z</time>
      </trkpt>
      <trkpt lat="43.64589" lon="1.72449">
        <ele>240</ele>
        <time>2025-02-18T14:52:37Z</time>
      </trkpt>
      <trkpt lat="43.6459" lon="1.72476">
        <ele>240</ele>
        <time>2025-02-18T14:52:40Z</time>
      </trkpt>
      <trkpt lat="43.64591" lon="1.72494">
        <ele>240</ele>
        <time>2025-02-18T14:52:42Z</time>
      </trkpt>
      <trkpt lat="43.64594" lon="1.72519">
        <ele>240</ele>
        <time>2025-02-18T14:52:46Z</time>
      </trkpt>
      <trkpt lat="43.64602" lon="1.72574">
        <ele>239</ele>
        <time>2025-02-18T14:52:53Z</time>
      </trkpt>
      <trkpt lat="43.64627" lon="1.72711">
        <ele>239</ele>
        <time>2025-02-18T14:53:11Z</time>
      </trkpt>
      <trkpt lat="43.64644" lon="1.72796">
        <ele>240</ele>
        <time>2025-02-18T14:53:22Z</time>
      </trkpt>
      <trkpt lat="43.64646" lon="1.72806">
        <ele>241</ele>
        <time>2025-02-18T14:53:24Z</time>
      </trkpt>
      <trkpt lat="43.64652" lon="1.72816">
        <ele>242</ele>
        <time>2025-02-18T14:53:25Z</time>
      </trkpt>
      <trkpt lat="43.64658" lon="1.72826">
        <ele>243</ele>
        <time>2025-02-18T14:53:27Z</time>
      </trkpt>
      <trkpt lat="43.64694" lon="1.72875">
        <ele>245</ele>
        <time>2025-02-18T14:53:36Z</time>
      </trkpt>
      <trkpt lat="43.64697" lon="1.72879">
        <ele>245</ele>
        <time>2025-02-18T14:53:37Z</time>
      </trkpt>
      <trkpt lat="43.64709" lon="1.72897">
        <ele>246</ele>
        <time>2025-02-18T14:53:40Z</time>
      </trkpt>
      <trkpt lat="43.64716" lon="1.7291">
        <ele>246</ele>
        <time>2025-02-18T14:53:42Z</time>
      </trkpt>
      <trkpt lat="43.64721" lon="1.72921">
        <ele>246</ele>
        <time>2025-02-18T14:53:44Z</time>
      </trkpt>
      <trkpt lat="43.64724" lon="1.72933">
        <ele>246</ele>
        <time>2025-02-18T14:53:45Z</time>
      </trkpt>
      <trkpt lat="43.64727" lon="1.72947">
        <ele>246</ele>
        <time>2025-02-18T14:53:47Z</time>
      </trkpt>
      <trkpt lat="43.64728" lon="1.72965">
        <ele>246</ele>
        <time>2025-02-18T14:53:50Z</time>
      </trkpt>
      <trkpt lat="43.6473" lon="1.72996">
        <ele>247</ele>
        <time>2025-02-18T14:53:54Z</time>
      </trkpt>
      <trkpt lat="43.64738" lon="1.73204">
        <ele>246</ele>
        <time>2025-02-18T14:54:20Z</time>
      </trkpt>
      <trkpt lat="43.64743" lon="1.73585">
        <ele>246</ele>
        <time>2025-02-18T14:55:09Z</time>
      </trkpt>
      <trkpt lat="43.64742" lon="1.73637">
        <ele>247</ele>
        <time>2025-02-18T14:55:16Z</time>
      </trkpt>
      <trkpt lat="43.64741" lon="1.73655">
        <ele>247</ele>
        <time>2025-02-18T14:55:18Z</time>
      </trkpt>
      <trkpt lat="43.6474" lon="1.73668">
        <ele>247</ele>
        <time>2025-02-18T14:55:20Z</time>
      </trkpt>
      <trkpt lat="43.64738" lon="1.7368">
        <ele>247</ele>
        <time>2025-02-18T14:55:22Z</time>
      </trkpt>
      <trkpt lat="43.64725" lon="1.73727">
        <ele>247</ele>
        <time>2025-02-18T14:55:28Z</time>
      </trkpt>
      <trkpt lat="43.64721" lon="1.73744">
        <ele>247</ele>
        <time>2025-02-18T14:55:30Z</time>
      </trkpt>
      <trkpt lat="43.6472" lon="1.73757">
        <ele>247</ele>
        <time>2025-02-18T14:55:32Z</time>
      </trkpt>
      <trkpt lat="43.64722" lon="1.73784">
        <ele>246</ele>
        <time>2025-02-18T14:55:36Z</time>
      </trkpt>
      <trkpt lat="43.64725" lon="1.738">
        <ele>246</ele>
        <time>2025-02-18T14:55:38Z</time>
      </trkpt>
      <trkpt lat="43.64728" lon="1.73817">
        <ele>245</ele>
        <time>2025-02-18T14:55:40Z</time>
      </trkpt>
      <trkpt lat="43.64734" lon="1.73837">
        <ele>244</ele>
        <time>2025-02-18T14:55:43Z</time>
      </trkpt>
      <trkpt lat="43.64743" lon="1.73865">
        <ele>243</ele>
        <time>2025-02-18T14:55:47Z</time>
      </trkpt>
      <trkpt lat="43.64746" lon="1.73874">
        <ele>243</ele>
        <time>2025-02-18T14:55:48Z</time>
      </trkpt>
      <trkpt lat="43.64772" lon="1.73935">
        <ele>243</ele>
        <time>2025-02-18T14:55:57Z</time>
      </trkpt>
      <trkpt lat="43.64782" lon="1.73962">
        <ele>244</ele>
        <time>2025-02-18T14:56:01Z</time>
      </trkpt>
      <trkpt lat="43.64793" lon="1.73999">
        <ele>245</ele>
        <time>2025-02-18T14:56:06Z</time>
      </trkpt>
      <trkpt lat="43.64808" lon="1.74053">
        <ele>246</ele>
        <time>2025-02-18T14:56:14Z</time>
      </trkpt>
      <trkpt lat="43.64811" lon="1.74069">
        <ele>247</ele>
        <time>2025-02-18T14:56:16Z</time>
      </trkpt>
      <trkpt lat="43.64813" lon="1.74085">
        <ele>247</ele>
        <time>2025-02-18T14:56:18Z</time>
      </trkpt>
      <trkpt lat="43.64814" lon="1.74102">
        <ele>247</ele>
        <time>2025-02-18T14:56:20Z</time>
      </trkpt>
      <trkpt lat="43.64814" lon="1.74161">
        <ele>248</ele>
        <time>2025-02-18T14:56:28Z</time>
      </trkpt>
      <trkpt lat="43.64814" lon="1.74181">
        <ele>248</ele>
        <time>2025-02-18T14:56:30Z</time>
      </trkpt>
      <trkpt lat="43.64816" lon="1.74197">
        <ele>248</ele>
        <time>2025-02-18T14:56:32Z</time>
      </trkpt>
      <trkpt lat="43.64818" lon="1.74213">
        <ele>248</ele>
        <time>2025-02-18T14:56:34Z</time>
      </trkpt>
      <trkpt lat="43.64825" lon="1.74247">
        <ele>249</ele>
        <time>2025-02-18T14:56:39Z</time>
      </trkpt>
      <trkpt lat="43.64856" lon="1.74356">
        <ele>248</ele>
        <time>2025-02-18T14:56:54Z</time>
      </trkpt>
      <trkpt lat="43.64867" lon="1.74385">
        <ele>248</ele>
        <time>2025-02-18T14:56:58Z</time>
      </trkpt>
      <trkpt lat="43.64873" lon="1.74398">
        <ele>249</ele>
        <time>2025-02-18T14:57:00Z</time>
      </trkpt>
      <trkpt lat="43.6488" lon="1.74409">
        <ele>249</ele>
        <time>2025-02-18T14:57:02Z</time>
      </trkpt>
      <trkpt lat="43.64901" lon="1.74438">
        <ele>249</ele>
        <time>2025-02-18T14:57:07Z</time>
      </trkpt>
      <trkpt lat="43.6494" lon="1.74488">
        <ele>250</ele>
        <time>2025-02-18T14:57:17Z</time>
      </trkpt>
      <trkpt lat="43.64949" lon="1.745">
        <ele>251</ele>
        <time>2025-02-18T14:57:19Z</time>
      </trkpt>
      <trkpt lat="43.64953" lon="1.74505">
        <ele>251</ele>
        <time>2025-02-18T14:57:20Z</time>
      </trkpt>
      <trkpt lat="43.65029" lon="1.74635">
        <ele>248</ele>
        <time>2025-02-18T14:57:42Z</time>
      </trkpt>
      <trkpt lat="43.65064" lon="1.74696">
        <ele>247</ele>
        <time>2025-02-18T14:57:52Z</time>
      </trkpt>
      <trkpt lat="43.65072" lon="1.74713">
        <ele>246</ele>
        <time>2025-02-18T14:57:54Z</time>
      </trkpt>
      <trkpt lat="43.65085" lon="1.74743">
        <ele>246</ele>
        <time>2025-02-18T14:57:59Z</time>
      </trkpt>
      <trkpt lat="43.6512" lon="1.74837">
        <ele>243</ele>
        <time>2025-02-18T14:58:12Z</time>
      </trkpt>
      <trkpt lat="43.65132" lon="1.74857">
        <ele>242</ele>
        <time>2025-02-18T14:58:16Z</time>
      </trkpt>
      <trkpt lat="43.65141" lon="1.74866">
        <ele>242</ele>
        <time>2025-02-18T14:58:18Z</time>
      </trkpt>
      <trkpt lat="43.65138" lon="1.74875">
        <ele>242</ele>
        <time>2025-02-18T14:58:19Z</time>
      </trkpt>
      <trkpt lat="43.65135" lon="1.74908">
        <ele>241</ele>
        <time>2025-02-18T14:58:23Z</time>
      </trkpt>
      <trkpt lat="43.65132" lon="1.74935">
        <ele>240</ele>
        <time>2025-02-18T14:58:27Z</time>
      </trkpt>
      <trkpt lat="43.65135" lon="1.74908">
        <ele>241</ele>
        <time>2025-02-18T14:58:30Z</time>
      </trkpt>
      <trkpt lat="43.65138" lon="1.74875">
        <ele>242</ele>
        <time>2025-02-18T14:58:35Z</time>
      </trkpt>
      <trkpt lat="43.65141" lon="1.74866">
        <ele>242</ele>
        <time>2025-02-18T14:58:36Z</time>
      </trkpt>
      <trkpt lat="43.65148" lon="1.74872">
        <ele>241</ele>
        <time>2025-02-18T14:58:37Z</time>
      </trkpt>
      <trkpt lat="43.65157" lon="1.74877">
        <ele>241</ele>
        <time>2025-02-18T14:58:39Z</time>
      </trkpt>
      <trkpt lat="43.65196" lon="1.74895">
        <ele>242</ele>
        <time>2025-02-18T14:58:46Z</time>
      </trkpt>
      <trkpt lat="43.65321" lon="1.74936">
        <ele>247</ele>
        <time>2025-02-18T14:59:09Z</time>
      </trkpt>
      <trkpt lat="43.65336" lon="1.7494">
        <ele>248</ele>
        <time>2025-02-18T14:59:12Z</time>
      </trkpt>
      <trkpt lat="43.65428" lon="1.74958">
        <ele>253</ele>
        <time>2025-02-18T14:59:28Z</time>
      </trkpt>
      <trkpt lat="43.65464" lon="1.7497">
        <ele>254</ele>
        <time>2025-02-18T14:59:35Z</time>
      </trkpt>
      <trkpt lat="43.65486" lon="1.7498">
        <ele>255</ele>
        <time>2025-02-18T14:59:39Z</time>
      </trkpt>
      <trkpt lat="43.65534" lon="1.75005">
        <ele>255</ele>
        <time>2025-02-18T14:59:48Z</time>
      </trkpt>
      <trkpt lat="43.65568" lon="1.75025">
        <ele>253</ele>
        <time>2025-02-18T14:59:55Z</time>
      </trkpt>
      <trkpt lat="43.65623" lon="1.7506">
        <ele>253</ele>
        <time>2025-02-18T15:00:06Z</time>
      </trkpt>
      <trkpt lat="43.65639" lon="1.75074">
        <ele>253</ele>
        <time>2025-02-18T15:00:09Z</time>
      </trkpt>
      <trkpt lat="43.65647" lon="1.75083">
        <ele>253</ele>
        <time>2025-02-18T15:00:11Z</time>
      </trkpt>
      <trkpt lat="43.65654" lon="1.75095">
        <ele>254</ele>
        <time>2025-02-18T15:00:13Z</time>
      </trkpt>
      <trkpt lat="43.65663" lon="1.75114">
        <ele>254</ele>
        <time>2025-02-18T15:00:16Z</time>
      </trkpt>
      <trkpt lat="43.65697" lon="1.75192">
        <ele>256</ele>
        <time>2025-02-18T15:00:27Z</time>
      </trkpt>
      <trkpt lat="43.65705" lon="1.75211">
        <ele>257</ele>
        <time>2025-02-18T15:00:30Z</time>
      </trkpt>
      <trkpt lat="43.65709" lon="1.75226">
        <ele>257</ele>
        <time>2025-02-18T15:00:32Z</time>
      </trkpt>
      <trkpt lat="43.65712" lon="1.75241">
        <ele>257</ele>
        <time>2025-02-18T15:00:34Z</time>
      </trkpt>
      <trkpt lat="43.65714" lon="1.75259">
        <ele>257</ele>
        <time>2025-02-18T15:00:37Z</time>
      </trkpt>
      <trkpt lat="43.65715" lon="1.75278">
        <ele>257</ele>
        <time>2025-02-18T15:00:39Z</time>
      </trkpt>
      <trkpt lat="43.65714" lon="1.7532">
        <ele>258</ele>
        <time>2025-02-18T15:00:45Z</time>
      </trkpt>
      <trkpt lat="43.65714" lon="1.75342">
        <ele>258</ele>
        <time>2025-02-18T15:00:47Z</time>
      </trkpt>
      <trkpt lat="43.65714" lon="1.75383">
        <ele>258</ele>
        <time>2025-02-18T15:00:53Z</time>
      </trkpt>
      <trkpt lat="43.65713" lon="1.75484">
        <ele>257</ele>
        <time>2025-02-18T15:01:06Z</time>
      </trkpt>
      <trkpt lat="43.65713" lon="1.75524">
        <ele>258</ele>
        <time>2025-02-18T15:01:11Z</time>
      </trkpt>
      <trkpt lat="43.65713" lon="1.75587">
        <ele>259</ele>
        <time>2025-02-18T15:01:19Z</time>
      </trkpt>
      <trkpt lat="43.65716" lon="1.75748">
        <ele>259</ele>
        <time>2025-02-18T15:01:40Z</time>
      </trkpt>
      <trkpt lat="43.65718" lon="1.75797">
        <ele>258</ele>
        <time>2025-02-18T15:01:46Z</time>
      </trkpt>
      <trkpt lat="43.65723" lon="1.7584">
        <ele>258</ele>
        <time>2025-02-18T15:01:52Z</time>
      </trkpt>
      <trkpt lat="43.6573" lon="1.75877">
        <ele>259</ele>
        <time>2025-02-18T15:01:57Z</time>
      </trkpt>
      <trkpt lat="43.65769" lon="1.76019">
        <ele>261</ele>
        <time>2025-02-18T15:02:16Z</time>
      </trkpt>
      <trkpt lat="43.65789" lon="1.76015">
        <ele>262</ele>
        <time>2025-02-18T15:02:20Z</time>
      </trkpt>
      <trkpt lat="43.65806" lon="1.76014">
        <ele>262</ele>
        <time>2025-02-18T15:02:23Z</time>
      </trkpt>
      <trkpt lat="43.65824" lon="1.76017">
        <ele>262</ele>
        <time>2025-02-18T15:02:26Z</time>
      </trkpt>
      <trkpt lat="43.65845" lon="1.76022">
        <ele>263</ele>
        <time>2025-02-18T15:02:30Z</time>
      </trkpt>
      <trkpt lat="43.65864" lon="1.76028">
        <ele>264</ele>
        <time>2025-02-18T15:02:33Z</time>
      </trkpt>
      <trkpt lat="43.65879" lon="1.76035">
        <ele>265</ele>
        <time>2025-02-18T15:02:36Z</time>
      </trkpt>
      <trkpt lat="43.65908" lon="1.76052">
        <ele>266</ele>
        <time>2025-02-18T15:02:42Z</time>
      </trkpt>
      <trkpt lat="43.65924" lon="1.76065">
        <ele>266</ele>
        <time>2025-02-18T15:02:45Z</time>
      </trkpt>
      <trkpt lat="43.65936" lon="1.76077">
        <ele>266</ele>
        <time>2025-02-18T15:02:48Z</time>
      </trkpt>
      <trkpt lat="43.65948" lon="1.76092">
        <ele>266</ele>
        <time>2025-02-18T15:02:50Z</time>
      </trkpt>
      <trkpt lat="43.65962" lon="1.76119">
        <ele>266</ele>
        <time>2025-02-18T15:02:55Z</time>
      </trkpt>
      <trkpt lat="43.6597" lon="1.76143">
        <ele>266</ele>
        <time>2025-02-18T15:02:58Z</time>
      </trkpt>
      <trkpt lat="43.65977" lon="1.76175">
        <ele>266</ele>
        <time>2025-02-18T15:03:02Z</time>
      </trkpt>
      <trkpt lat="43.65981" lon="1.76185">
        <ele>266</ele>
        <time>2025-02-18T15:03:04Z</time>
      </trkpt>
      <trkpt lat="43.65985" lon="1.76194">
        <ele>265</ele>
        <time>2025-02-18T15:03:05Z</time>
      </trkpt>
      <trkpt lat="43.65989" lon="1.76199">
        <ele>265</ele>
        <time>2025-02-18T15:03:06Z</time>
      </trkpt>
      <trkpt lat="43.65994" lon="1.76203">
        <ele>265</ele>
        <time>2025-02-18T15:03:07Z</time>
      </trkpt>
      <trkpt lat="43.65997" lon="1.76205">
        <ele>265</ele>
        <time>2025-02-18T15:03:08Z</time>
      </trkpt>
      <trkpt lat="43.66002" lon="1.76205">
        <ele>265</ele>
        <time>2025-02-18T15:03:09Z</time>
      </trkpt>
      <trkpt lat="43.66008" lon="1.76202">
        <ele>264</ele>
        <time>2025-02-18T15:03:10Z</time>
      </trkpt>
      <trkpt lat="43.66015" lon="1.76198">
        <ele>263</ele>
        <time>2025-02-18T15:03:11Z</time>
      </trkpt>
      <trkpt lat="43.66111" lon="1.76104">
        <ele>257</ele>
        <time>2025-02-18T15:03:32Z</time>
      </trkpt>
      <trkpt lat="43.66121" lon="1.76093">
        <ele>257</ele>
        <time>2025-02-18T15:03:34Z</time>
      </trkpt>
      <trkpt lat="43.66136" lon="1.7607">
        <ele>257</ele>
        <time>2025-02-18T15:03:38Z</time>
      </trkpt>
      <trkpt lat="43.66153" lon="1.76042">
        <ele>258</ele>
        <time>2025-02-18T15:03:43Z</time>
      </trkpt>
      <trkpt lat="43.6616" lon="1.76034">
        <ele>258</ele>
        <time>2025-02-18T15:03:45Z</time>
      </trkpt>
      <trkpt lat="43.66169" lon="1.76028">
        <ele>258</ele>
        <time>2025-02-18T15:03:46Z</time>
      </trkpt>
      <trkpt lat="43.66223" lon="1.76011">
        <ele>255</ele>
        <time>2025-02-18T15:03:56Z</time>
      </trkpt>
      <trkpt lat="43.6623" lon="1.7601">
        <ele>255</ele>
        <time>2025-02-18T15:03:58Z</time>
      </trkpt>
      <trkpt lat="43.66238" lon="1.7601">
        <ele>254</ele>
        <time>2025-02-18T15:03:59Z</time>
      </trkpt>
      <trkpt lat="43.66248" lon="1.76013">
        <ele>253</ele>
        <time>2025-02-18T15:04:01Z</time>
      </trkpt>
      <trkpt lat="43.66253" lon="1.76017">
        <ele>252</ele>
        <time>2025-02-18T15:04:02Z</time>
      </trkpt>
      <trkpt lat="43.66263" lon="1.76026">
        <ele>250</ele>
        <time>2025-02-18T15:04:04Z</time>
      </trkpt>
      <trkpt lat="43.66266" lon="1.7603">
        <ele>250</ele>
        <time>2025-02-18T15:04:05Z</time>
      </trkpt>
      <trkpt lat="43.66273" lon="1.76044">
        <ele>248</ele>
        <time>2025-02-18T15:04:07Z</time>
      </trkpt>
      <trkpt lat="43.66282" lon="1.76084">
        <ele>243</ele>
        <time>2025-02-18T15:04:12Z</time>
      </trkpt>
      <trkpt lat="43.66286" lon="1.76098">
        <ele>242</ele>
        <time>2025-02-18T15:04:14Z</time>
      </trkpt>
      <trkpt lat="43.66289" lon="1.76105">
        <ele>241</ele>
        <time>2025-02-18T15:04:15Z</time>
      </trkpt>
      <trkpt lat="43.66294" lon="1.7611">
        <ele>241</ele>
        <time>2025-02-18T15:04:16Z</time>
      </trkpt>
      <trkpt lat="43.663" lon="1.76113">
        <ele>240</ele>
        <time>2025-02-18T15:04:18Z</time>
      </trkpt>
      <trkpt lat="43.66306" lon="1.76115">
        <ele>240</ele>
        <time>2025-02-18T15:04:19Z</time>
      </trkpt>
      <trkpt lat="43.66313" lon="1.76115">
        <ele>240</ele>
        <time>2025-02-18T15:04:20Z</time>
      </trkpt>
      <trkpt lat="43.66321" lon="1.76111">
        <ele>240</ele>
        <time>2025-02-18T15:04:21Z</time>
      </trkpt>
      <trkpt lat="43.66336" lon="1.76097">
        <ele>240</ele>
        <time>2025-02-18T15:04:25Z</time>
      </trkpt>
      <trkpt lat="43.66349" lon="1.76079">
        <ele>240</ele>
        <time>2025-02-18T15:04:28Z</time>
      </trkpt>
      <trkpt lat="43.66368" lon="1.76052">
        <ele>239</ele>
        <time>2025-02-18T15:04:33Z</time>
      </trkpt>
      <trkpt lat="43.66382" lon="1.76033">
        <ele>238</ele>
        <time>2025-02-18T15:04:36Z</time>
      </trkpt>
      <trkpt lat="43.66389" lon="1.76025">
        <ele>238</ele>
        <time>2025-02-18T15:04:38Z</time>
      </trkpt>
      <trkpt lat="43.66397" lon="1.76018">
        <ele>237</ele>
        <time>2025-02-18T15:04:39Z</time>
      </trkpt>
      <trkpt lat="43.66409" lon="1.7601">
        <ele>236</ele>
        <time>2025-02-18T15:04:42Z</time>
      </trkpt>
      <trkpt lat="43.66417" lon="1.76007">
        <ele>236</ele>
        <time>2025-02-18T15:04:43Z</time>
      </trkpt>
      <trkpt lat="43.66442" lon="1.76">
        <ele>233</ele>
        <time>2025-02-18T15:04:48Z</time>
      </trkpt>
      <trkpt lat="43.6645" lon="1.75997">
        <ele>232</ele>
        <time>2025-02-18T15:04:49Z</time>
      </trkpt>
      <trkpt lat="43.66464" lon="1.75988">
        <ele>231</ele>
        <time>2025-02-18T15:04:52Z</time>
      </trkpt>
      <trkpt lat="43.66471" lon="1.75981">
        <ele>230</ele>
        <time>2025-02-18T15:04:54Z</time>
      </trkpt>
      <trkpt lat="43.66478" lon="1.75973">
        <ele>229</ele>
        <time>2025-02-18T15:04:55Z</time>
      </trkpt>
      <trkpt lat="43.66487" lon="1.75955">
        <ele>228</ele>
        <time>2025-02-18T15:04:58Z</time>
      </trkpt>
      <trkpt lat="43.66507" lon="1.75905">
        <ele>225</ele>
        <time>2025-02-18T15:05:05Z</time>
      </trkpt>
      <trkpt lat="43.66514" lon="1.75887">
        <ele>226</ele>
        <time>2025-02-18T15:05:08Z</time>
      </trkpt>
      <trkpt lat="43.66519" lon="1.75877">
        <ele>226</ele>
        <time>2025-02-18T15:05:10Z</time>
      </trkpt>
      <trkpt lat="43.6653" lon="1.75861">
        <ele>226</ele>
        <time>2025-02-18T15:05:12Z</time>
      </trkpt>
      <trkpt lat="43.66541" lon="1.7585">
        <ele>225</ele>
        <time>2025-02-18T15:05:15Z</time>
      </trkpt>
      <trkpt lat="43.66554" lon="1.7584">
        <ele>224</ele>
        <time>2025-02-18T15:05:18Z</time>
      </trkpt>
      <trkpt lat="43.66578" lon="1.75823">
        <ele>222</ele>
        <time>2025-02-18T15:05:22Z</time>
      </trkpt>
      <trkpt lat="43.66586" lon="1.75819">
        <ele>222</ele>
        <time>2025-02-18T15:05:24Z</time>
      </trkpt>
      <trkpt lat="43.66602" lon="1.75814">
        <ele>221</ele>
        <time>2025-02-18T15:05:27Z</time>
      </trkpt>
      <trkpt lat="43.66612" lon="1.75813">
        <ele>220</ele>
        <time>2025-02-18T15:05:29Z</time>
      </trkpt>
      <trkpt lat="43.66623" lon="1.75814">
        <ele>219</ele>
        <time>2025-02-18T15:05:31Z</time>
      </trkpt>
      <trkpt lat="43.66642" lon="1.75816">
        <ele>218</ele>
        <time>2025-02-18T15:05:34Z</time>
      </trkpt>
      <trkpt lat="43.66695" lon="1.75828">
        <ele>215</ele>
        <time>2025-02-18T15:05:43Z</time>
      </trkpt>
      <trkpt lat="43.66716" lon="1.75836">
        <ele>215</ele>
        <time>2025-02-18T15:05:47Z</time>
      </trkpt>
      <trkpt lat="43.66731" lon="1.75847">
        <ele>214</ele>
        <time>2025-02-18T15:05:50Z</time>
      </trkpt>
      <trkpt lat="43.66738" lon="1.75854">
        <ele>213</ele>
        <time>2025-02-18T15:05:52Z</time>
      </trkpt>
      <trkpt lat="43.66749" lon="1.75867">
        <ele>212</ele>
        <time>2025-02-18T15:05:54Z</time>
      </trkpt>
      <trkpt lat="43.66759" lon="1.75882">
        <ele>211</ele>
        <time>2025-02-18T15:05:57Z</time>
      </trkpt>
      <trkpt lat="43.66768" lon="1.75899">
        <ele>210</ele>
        <time>2025-02-18T15:06:00Z</time>
      </trkpt>
      <trkpt lat="43.66776" lon="1.75915">
        <ele>209</ele>
        <time>2025-02-18T15:06:02Z</time>
      </trkpt>
      <trkpt lat="43.66787" lon="1.75947">
        <ele>208</ele>
        <time>2025-02-18T15:06:07Z</time>
      </trkpt>
      <trkpt lat="43.66797" lon="1.75988">
        <ele>205</ele>
        <time>2025-02-18T15:06:12Z</time>
      </trkpt>
      <trkpt lat="43.66818" lon="1.76081">
        <ele>200</ele>
        <time>2025-02-18T15:06:25Z</time>
      </trkpt>
      <trkpt lat="43.66822" lon="1.76097">
        <ele>199</ele>
        <time>2025-02-18T15:06:27Z</time>
      </trkpt>
      <trkpt lat="43.66825" lon="1.76103">
        <ele>199</ele>
        <time>2025-02-18T15:06:28Z</time>
      </trkpt>
      <trkpt lat="43.6683" lon="1.76111">
        <ele>198</ele>
        <time>2025-02-18T15:06:29Z</time>
      </trkpt>
      <trkpt lat="43.66834" lon="1.76116">
        <ele>198</ele>
        <time>2025-02-18T15:06:30Z</time>
      </trkpt>
      <trkpt lat="43.66845" lon="1.76123">
        <ele>197</ele>
        <time>2025-02-18T15:06:33Z</time>
      </trkpt>
      <trkpt lat="43.66852" lon="1.76125">
        <ele>197</ele>
        <time>2025-02-18T15:06:34Z</time>
      </trkpt>
      <trkpt lat="43.6688" lon="1.76127">
        <ele>197</ele>
        <time>2025-02-18T15:06:39Z</time>
      </trkpt>
      <trkpt lat="43.6689" lon="1.7613">
        <ele>196</ele>
        <time>2025-02-18T15:06:41Z</time>
      </trkpt>
      <trkpt lat="43.66904" lon="1.76134">
        <ele>196</ele>
        <time>2025-02-18T15:06:43Z</time>
      </trkpt>
      <trkpt lat="43.66936" lon="1.7615">
        <ele>194</ele>
        <time>2025-02-18T15:06:49Z</time>
      </trkpt>
      <trkpt lat="43.66974" lon="1.76173">
        <ele>191</ele>
        <time>2025-02-18T15:06:57Z</time>
      </trkpt>
      <trkpt lat="43.66994" lon="1.76186">
        <ele>190</ele>
        <time>2025-02-18T15:07:01Z</time>
      </trkpt>
      <trkpt lat="43.67019" lon="1.76204">
        <ele>189</ele>
        <time>2025-02-18T15:07:06Z</time>
      </trkpt>
      <trkpt lat="43.67064" lon="1.7624">
        <ele>188</ele>
        <time>2025-02-18T15:07:15Z</time>
      </trkpt>
      <trkpt lat="43.67071" lon="1.76245">
        <ele>188</ele>
        <time>2025-02-18T15:07:16Z</time>
      </trkpt>
      <trkpt lat="43.67171" lon="1.76299">
        <ele>186</ele>
        <time>2025-02-18T15:07:35Z</time>
      </trkpt>
      <trkpt lat="43.6718" lon="1.76304">
        <ele>184</ele>
        <time>2025-02-18T15:07:37Z</time>
      </trkpt>
      <trkpt lat="43.67188" lon="1.76311">
        <ele>183</ele>
        <time>2025-02-18T15:07:39Z</time>
      </trkpt>
      <trkpt lat="43.67195" lon="1.7632">
        <ele>181</ele>
        <time>2025-02-18T15:07:40Z</time>
      </trkpt>
      <trkpt lat="43.67199" lon="1.76329">
        <ele>180</ele>
        <time>2025-02-18T15:07:42Z</time>
      </trkpt>
      <trkpt lat="43.67203" lon="1.76339">
        <ele>179</ele>
        <time>2025-02-18T15:07:43Z</time>
      </trkpt>
      <trkpt lat="43.67204" lon="1.76351">
        <ele>179</ele>
        <time>2025-02-18T15:07:45Z</time>
      </trkpt>
      <trkpt lat="43.67205" lon="1.76399">
        <ele>179</ele>
        <time>2025-02-18T15:07:51Z</time>
      </trkpt>
      <trkpt lat="43.67206" lon="1.76409">
        <ele>179</ele>
        <time>2025-02-18T15:07:52Z</time>
      </trkpt>
      <trkpt lat="43.67207" lon="1.76417">
        <ele>179</ele>
        <time>2025-02-18T15:07:53Z</time>
      </trkpt>
      <trkpt lat="43.67211" lon="1.76426">
        <ele>179</ele>
        <time>2025-02-18T15:07:55Z</time>
      </trkpt>
      <trkpt lat="43.67216" lon="1.76436">
        <ele>179</ele>
        <time>2025-02-18T15:07:56Z</time>
      </trkpt>
      <trkpt lat="43.67233" lon="1.76454">
        <ele>179</ele>
        <time>2025-02-18T15:08:00Z</time>
      </trkpt>
      <trkpt lat="43.67281" lon="1.76494">
        <ele>176</ele>
        <time>2025-02-18T15:08:10Z</time>
      </trkpt>
      <trkpt lat="43.67395" lon="1.76583">
        <ele>171</ele>
        <time>2025-02-18T15:08:33Z</time>
      </trkpt>
      <trkpt lat="43.67443" lon="1.76623">
        <ele>171</ele>
        <time>2025-02-18T15:08:43Z</time>
      </trkpt>
      <trkpt lat="43.67469" lon="1.76645">
        <ele>171</ele>
        <time>2025-02-18T15:08:49Z</time>
      </trkpt>
      <trkpt lat="43.67496" lon="1.76671">
        <ele>170</ele>
        <time>2025-02-18T15:08:55Z</time>
      </trkpt>
      <trkpt lat="43.67534" lon="1.76711">
        <ele>172</ele>
        <time>2025-02-18T15:09:03Z</time>
      </trkpt>
      <trkpt lat="43.67557" lon="1.76737">
        <ele>172</ele>
        <time>2025-02-18T15:09:08Z</time>
      </trkpt>
      <trkpt lat="43.67575" lon="1.76761">
        <ele>172</ele>
        <time>2025-02-18T15:09:13Z</time>
      </trkpt>
      <trkpt lat="43.67581" lon="1.76771">
        <ele>173</ele>
        <time>2025-02-18T15:09:14Z</time>
      </trkpt>
      <trkpt lat="43.67592" lon="1.76792">
        <ele>175</ele>
        <time>2025-02-18T15:09:18Z</time>
      </trkpt>
      <trkpt lat="43.6762" lon="1.7685">
        <ele>180</ele>
        <time>2025-02-18T15:09:27Z</time>
      </trkpt>
      <trkpt lat="43.67629" lon="1.76871">
        <ele>181</ele>
        <time>2025-02-18T15:09:30Z</time>
      </trkpt>
      <trkpt lat="43.67638" lon="1.76896">
        <ele>181</ele>
        <time>2025-02-18T15:09:34Z</time>
      </trkpt>
      <trkpt lat="43.67646" lon="1.76922">
        <ele>182</ele>
        <time>2025-02-18T15:09:37Z</time>
      </trkpt>
      <trkpt lat="43.67651" lon="1.76943">
        <ele>181</ele>
        <time>2025-02-18T15:09:40Z</time>
      </trkpt>
      <trkpt lat="43.67661" lon="1.76991">
        <ele>178</ele>
        <time>2025-02-18T15:09:46Z</time>
      </trkpt>
      <trkpt lat="43.67665" lon="1.77025">
        <ele>176</ele>
        <time>2025-02-18T15:09:51Z</time>
      </trkpt>
      <trkpt lat="43.67671" lon="1.77091">
        <ele>171</ele>
        <time>2025-02-18T15:09:59Z</time>
      </trkpt>
      <trkpt lat="43.67674" lon="1.77114">
        <ele>170</ele>
        <time>2025-02-18T15:10:02Z</time>
      </trkpt>
      <trkpt lat="43.67678" lon="1.77131">
        <ele>169</ele>
        <time>2025-02-18T15:10:05Z</time>
      </trkpt>
      <trkpt lat="43.67684" lon="1.77147">
        <ele>169</ele>
        <time>2025-02-18T15:10:07Z</time>
      </trkpt>
      <trkpt lat="43.67703" lon="1.77194">
        <ele>168</ele>
        <time>2025-02-18T15:10:14Z</time>
      </trkpt>
      <trkpt lat="43.67724" lon="1.77246">
        <ele>167</ele>
        <time>2025-02-18T15:10:22Z</time>
      </trkpt>
      <trkpt lat="43.67731" lon="1.77258">
        <ele>167</ele>
        <time>2025-02-18T15:10:24Z</time>
      </trkpt>
      <trkpt lat="43.67745" lon="1.77277">
        <ele>167</ele>
        <time>2025-02-18T15:10:27Z</time>
      </trkpt>
      <trkpt lat="43.67775" lon="1.7731">
        <ele>169</ele>
        <time>2025-02-18T15:10:34Z</time>
      </trkpt>
      <trkpt lat="43.67804" lon="1.77346">
        <ele>169</ele>
        <time>2025-02-18T15:10:41Z</time>
      </trkpt>
      <trkpt lat="43.6784" lon="1.77391">
        <ele>168</ele>
        <time>2025-02-18T15:10:50Z</time>
      </trkpt>
      <trkpt lat="43.67858" lon="1.77418">
        <ele>167</ele>
        <time>2025-02-18T15:10:54Z</time>
      </trkpt>
      <trkpt lat="43.6788" lon="1.77455">
        <ele>165</ele>
        <time>2025-02-18T15:11:00Z</time>
      </trkpt>
      <trkpt lat="43.67891" lon="1.7747">
        <ele>164</ele>
        <time>2025-02-18T15:11:03Z</time>
      </trkpt>
      <trkpt lat="43.67899" lon="1.77481">
        <ele>163</ele>
        <time>2025-02-18T15:11:05Z</time>
      </trkpt>
      <trkpt lat="43.67906" lon="1.77488">
        <ele>163</ele>
        <time>2025-02-18T15:11:07Z</time>
      </trkpt>
      <trkpt lat="43.67913" lon="1.77493">
        <ele>162</ele>
        <time>2025-02-18T15:11:08Z</time>
      </trkpt>
      <trkpt lat="43.67929" lon="1.77501">
        <ele>163</ele>
        <time>2025-02-18T15:11:11Z</time>
      </trkpt>
      <trkpt lat="43.67973" lon="1.77514">
        <ele>166</ele>
        <time>2025-02-18T15:11:19Z</time>
      </trkpt>
      <trkpt lat="43.67993" lon="1.77524">
        <ele>167</ele>
        <time>2025-02-18T15:11:23Z</time>
      </trkpt>
      <trkpt lat="43.6801" lon="1.77536">
        <ele>167</ele>
        <time>2025-02-18T15:11:26Z</time>
      </trkpt>
      <trkpt lat="43.68041" lon="1.77565">
        <ele>168</ele>
        <time>2025-02-18T15:11:33Z</time>
      </trkpt>
      <trkpt lat="43.68063" lon="1.7759">
        <ele>168</ele>
        <time>2025-02-18T15:11:38Z</time>
      </trkpt>
      <trkpt lat="43.68087" lon="1.77619">
        <ele>168</ele>
        <time>2025-02-18T15:11:44Z</time>
      </trkpt>
      <trkpt lat="43.68106" lon="1.77645">
        <ele>169</ele>
        <time>2025-02-18T15:11:48Z</time>
      </trkpt>
      <trkpt lat="43.68126" lon="1.77675">
        <ele>169</ele>
        <time>2025-02-18T15:11:54Z</time>
      </trkpt>
      <trkpt lat="43.68139" lon="1.777">
        <ele>170</ele>
        <time>2025-02-18T15:11:58Z</time>
      </trkpt>
      <trkpt lat="43.68161" lon="1.77755">
        <ele>167</ele>
        <time>2025-02-18T15:12:06Z</time>
      </trkpt>
      <trkpt lat="43.68173" lon="1.77791">
        <ele>164</ele>
        <time>2025-02-18T15:12:11Z</time>
      </trkpt>
      <trkpt lat="43.68185" lon="1.77822">
        <ele>163</ele>
        <time>2025-02-18T15:12:15Z</time>
      </trkpt>
      <trkpt lat="43.68197" lon="1.77841">
        <ele>163</ele>
        <time>2025-02-18T15:12:19Z</time>
      </trkpt>
      <trkpt lat="43.68213" lon="1.77859">
        <ele>163</ele>
        <time>2025-02-18T15:12:22Z</time>
      </trkpt>
      <trkpt lat="43.68247" lon="1.77891">
        <ele>162</ele>
        <time>2025-02-18T15:12:30Z</time>
      </trkpt>
      <trkpt lat="43.68265" lon="1.77912">
        <ele>161</ele>
        <time>2025-02-18T15:12:34Z</time>
      </trkpt>
      <trkpt lat="43.68281" lon="1.77938">
        <ele>161</ele>
        <time>2025-02-18T15:12:38Z</time>
      </trkpt>
      <trkpt lat="43.68311" lon="1.78001">
        <ele>160</ele>
        <time>2025-02-18T15:12:48Z</time>
      </trkpt>
      <trkpt lat="43.68322" lon="1.78026">
        <ele>160</ele>
        <time>2025-02-18T15:12:52Z</time>
      </trkpt>
      <trkpt lat="43.68335" lon="1.78058">
        <ele>159</ele>
        <time>2025-02-18T15:12:56Z</time>
      </trkpt>
      <trkpt lat="43.68353" lon="1.78111">
        <ele>158</ele>
        <time>2025-02-18T15:13:04Z</time>
      </trkpt>
      <trkpt lat="43.6838" lon="1.78197">
        <ele>156</ele>
        <time>2025-02-18T15:13:16Z</time>
      </trkpt>
      <trkpt lat="43.68381" lon="1.78199">
        <ele>156</ele>
        <time>2025-02-18T15:13:16Z</time>
      </trkpt>
      <trkpt lat="43.68392" lon="1.78226">
        <ele>156</ele>
        <time>2025-02-18T15:13:20Z</time>
      </trkpt>
      <trkpt lat="43.68399" lon="1.78244">
        <ele>156</ele>
        <time>2025-02-18T15:13:23Z</time>
      </trkpt>
      <trkpt lat="43.68408" lon="1.78261">
        <ele>156</ele>
        <time>2025-02-18T15:13:26Z</time>
      </trkpt>
      <trkpt lat="43.68418" lon="1.7828">
        <ele>155</ele>
        <time>2025-02-18T15:13:29Z</time>
      </trkpt>
      <trkpt lat="43.68474" lon="1.78377">
        <ele>158</ele>
        <time>2025-02-18T15:13:45Z</time>
      </trkpt>
      <trkpt lat="43.68487" lon="1.78402">
        <ele>159</ele>
        <time>2025-02-18T15:13:49Z</time>
      </trkpt>
      <trkpt lat="43.68508" lon="1.7845">
        <ele>158</ele>
        <time>2025-02-18T15:13:56Z</time>
      </trkpt>
      <trkpt lat="43.68535" lon="1.78524">
        <ele>157</ele>
        <time>2025-02-18T15:14:06Z</time>
      </trkpt>
      <trkpt lat="43.68558" lon="1.78591">
        <ele>157</ele>
        <time>2025-02-18T15:14:16Z</time>
      </trkpt>
      <trkpt lat="43.68583" lon="1.78669">
        <ele>155</ele>
        <time>2025-02-18T15:14:27Z</time>
      </trkpt>
      <trkpt lat="43.6859" lon="1.78696">
        <ele>155</ele>
        <time>2025-02-18T15:14:31Z</time>
      </trkpt>
      <trkpt lat="43.686" lon="1.78746">
        <ele>155</ele>
        <time>2025-02-18T15:14:37Z</time>
      </trkpt>
      <trkpt lat="43.68609" lon="1.78817">
        <ele>154</ele>
        <time>2025-02-18T15:14:47Z</time>
      </trkpt>
      <trkpt lat="43.68626" lon="1.79011">
        <ele>153</ele>
        <time>2025-02-18T15:15:12Z</time>
      </trkpt>
      <trkpt lat="43.68638" lon="1.79151">
        <ele>153</ele>
        <time>2025-02-18T15:15:30Z</time>
      </trkpt>
      <trkpt lat="43.68641" lon="1.79181">
        <ele>153</ele>
        <time>2025-02-18T15:15:34Z</time>
      </trkpt>
      <trkpt lat="43.68645" lon="1.79201">
        <ele>153</ele>
        <time>2025-02-18T15:15:37Z</time>
      </trkpt>
      <trkpt lat="43.68651" lon="1.79227">
        <ele>154</ele>
        <time>2025-02-18T15:15:40Z</time>
      </trkpt>
      <trkpt lat="43.68658" lon="1.79252">
        <ele>154</ele>
        <time>2025-02-18T15:15:43Z</time>
      </trkpt>
      <trkpt lat="43.68666" lon="1.79279">
        <ele>154</ele>
        <time>2025-02-18T15:15:47Z</time>
      </trkpt>
      <trkpt lat="43.68675" lon="1.79307">
        <ele>153</ele>
        <time>2025-02-18T15:15:51Z</time>
      </trkpt>
      <trkpt lat="43.68685" lon="1.79332">
        <ele>153</ele>
        <time>2025-02-18T15:15:55Z</time>
      </trkpt>
      <trkpt lat="43.68691" lon="1.79346">
        <ele>154</ele>
        <time>2025-02-18T15:15:57Z</time>
      </trkpt>
      <trkpt lat="43.68705" lon="1.79374">
        <ele>154</ele>
        <time>2025-02-18T15:16:01Z</time>
      </trkpt>
      <trkpt lat="43.68712" lon="1.79386">
        <ele>154</ele>
        <time>2025-02-18T15:16:03Z</time>
      </trkpt>
      <trkpt lat="43.68738" lon="1.79422">
        <ele>156</ele>
        <time>2025-02-18T15:16:10Z</time>
      </trkpt>
      <trkpt lat="43.68776" lon="1.79469">
        <ele>158</ele>
        <time>2025-02-18T15:16:19Z</time>
      </trkpt>
      <trkpt lat="43.688" lon="1.79496">
        <ele>159</ele>
        <time>2025-02-18T15:16:24Z</time>
      </trkpt>
      <trkpt lat="43.68899" lon="1.79618">
        <ele>158</ele>
        <time>2025-02-18T15:16:48Z</time>
      </trkpt>
      <trkpt lat="43.68938" lon="1.79668">
        <ele>157</ele>
        <time>2025-02-18T15:16:57Z</time>
      </trkpt>
      <trkpt lat="43.68984" lon="1.79727">
        <ele>157</ele>
        <time>2025-02-18T15:17:09Z</time>
      </trkpt>
      <trkpt lat="43.69004" lon="1.79754">
        <ele>157</ele>
        <time>2025-02-18T15:17:14Z</time>
      </trkpt>
      <trkpt lat="43.69027" lon="1.79791">
        <ele>156</ele>
        <time>2025-02-18T15:17:20Z</time>
      </trkpt>
      <trkpt lat="43.69077" lon="1.79874">
        <ele>155</ele>
        <time>2025-02-18T15:17:34Z</time>
      </trkpt>
      <trkpt lat="43.69161" lon="1.80015">
        <ele>154</ele>
        <time>2025-02-18T15:17:57Z</time>
      </trkpt>
      <trkpt lat="43.69168" lon="1.80037">
        <ele>154</ele>
        <time>2025-02-18T15:18:00Z</time>
      </trkpt>
      <trkpt lat="43.69168" lon="1.80041">
        <ele>154</ele>
        <time>2025-02-18T15:18:01Z</time>
      </trkpt>
      <trkpt lat="43.69168" lon="1.80045">
        <ele>153</ele>
        <time>2025-02-18T15:18:01Z</time>
      </trkpt>
      <trkpt lat="43.69169" lon="1.8005">
        <ele>153</ele>
        <time>2025-02-18T15:18:02Z</time>
      </trkpt>
      <trkpt lat="43.69172" lon="1.80053">
        <ele>153</ele>
        <time>2025-02-18T15:18:03Z</time>
      </trkpt>
      <trkpt lat="43.69176" lon="1.80055">
        <ele>154</ele>
        <time>2025-02-18T15:18:03Z</time>
      </trkpt>
      <trkpt lat="43.69179" lon="1.80055">
        <ele>154</ele>
        <time>2025-02-18T15:18:04Z</time>
      </trkpt>
      <trkpt lat="43.69195" lon="1.8007">
        <ele>154</ele>
        <time>2025-02-18T15:18:07Z</time>
      </trkpt>
      <trkpt lat="43.69264" lon="1.80186">
        <ele>152</ele>
        <time>2025-02-18T15:18:27Z</time>
      </trkpt>
      <trkpt lat="43.69459" lon="1.80514">
        <ele>149</ele>
        <time>2025-02-18T15:19:21Z</time>
      </trkpt>
      <trkpt lat="43.69577" lon="1.80712">
        <ele>145</ele>
        <time>2025-02-18T15:19:54Z</time>
      </trkpt>
      <trkpt lat="43.6959" lon="1.80735">
        <ele>144</ele>
        <time>2025-02-18T15:19:58Z</time>
      </trkpt>
      <trkpt lat="43.69604" lon="1.80765">
        <ele>144</ele>
        <time>2025-02-18T15:20:03Z</time>
      </trkpt>
      <trkpt lat="43.69615" lon="1.80793">
        <ele>143</ele>
        <time>2025-02-18T15:20:07Z</time>
      </trkpt>
      <trkpt lat="43.69621" lon="1.80813">
        <ele>143</ele>
        <time>2025-02-18T15:20:10Z</time>
      </trkpt>
      <trkpt lat="43.69643" lon="1.80892">
        <ele>143</ele>
        <time>2025-02-18T15:20:21Z</time>
      </trkpt>
      <trkpt lat="43.69673" lon="1.81001">
        <ele>143</ele>
        <time>2025-02-18T15:20:36Z</time>
      </trkpt>
      <trkpt lat="43.69677" lon="1.8102">
        <ele>143</ele>
        <time>2025-02-18T15:20:38Z</time>
      </trkpt>
      <trkpt lat="43.69694" lon="1.81089">
        <ele>143</ele>
        <time>2025-02-18T15:20:47Z</time>
      </trkpt>
      <trkpt lat="43.69713" lon="1.8116">
        <ele>142</ele>
        <time>2025-02-18T15:20:57Z</time>
      </trkpt>
      <trkpt lat="43.69727" lon="1.81215">
        <ele>143</ele>
        <time>2025-02-18T15:21:05Z</time>
      </trkpt>
      <trkpt lat="43.69739" lon="1.81279">
        <ele>143</ele>
        <time>2025-02-18T15:21:13Z</time>
      </trkpt>
      <trkpt lat="43.69748" lon="1.81423">
        <ele>143</ele>
        <time>2025-02-18T15:21:32Z</time>
      </trkpt>
      <trkpt lat="43.69748" lon="1.81428">
        <ele>143</ele>
        <time>2025-02-18T15:21:32Z</time>
      </trkpt>
      <trkpt lat="43.6975" lon="1.81436">
        <ele>143</ele>
        <time>2025-02-18T15:21:34Z</time>
      </trkpt>
      <trkpt lat="43.69754" lon="1.81456">
        <ele>142</ele>
        <time>2025-02-18T15:21:36Z</time>
      </trkpt>
      <trkpt lat="43.69759" lon="1.8148">
        <ele>142</ele>
        <time>2025-02-18T15:21:39Z</time>
      </trkpt>
      <trkpt lat="43.6977" lon="1.81509">
        <ele>142</ele>
        <time>2025-02-18T15:21:44Z</time>
      </trkpt>
      <trkpt lat="43.69774" lon="1.81522">
        <ele>143</ele>
        <time>2025-02-18T15:21:45Z</time>
      </trkpt>
      <trkpt lat="43.69665" lon="1.81583">
        <ele>140</ele>
        <time>2025-02-18T15:22:06Z</time>
      </trkpt>
      <trkpt lat="43.69649" lon="1.81587">
        <ele>140</ele>
        <time>2025-02-18T15:22:09Z</time>
      </trkpt>
      <trkpt lat="43.69646" lon="1.81584">
        <ele>140</ele>
        <time>2025-02-18T15:22:10Z</time>
      </trkpt>
      <trkpt lat="43.69642" lon="1.81583">
        <ele>140</ele>
        <time>2025-02-18T15:22:11Z</time>
      </trkpt>
      <trkpt lat="43.69637" lon="1.81584">
        <ele>140</ele>
        <time>2025-02-18T15:22:12Z</time>
      </trkpt>
      <trkpt lat="43.69635" lon="1.81587">
        <ele>140</ele>
        <time>2025-02-18T15:22:12Z</time>
      </trkpt>
      <trkpt lat="43.69631" lon="1.8158">
        <ele>140</ele>
        <time>2025-02-18T15:22:13Z</time>
      </trkpt>
      <trkpt lat="43.69631" lon="1.81579">
        <ele>140</ele>
        <time>2025-02-18T15:22:13Z</time>
      </trkpt>
      <trkpt lat="43.69628" lon="1.81583">
        <ele>140</ele>
        <time>2025-02-18T15:22:14Z</time>
      </trkpt>
    </trkseg>
  </trk>
</gpx>